<?xml version='1.0' encoding='UTF-8'?><gpx version="1.1" creator="JPX - https://github.com/jenetics/jpx" xmlns="http://www.topografix.com/GPX/1/1"><trk><trkseg><trkpt lat="46.713152824018465" lon="4.690299670419949"><ele>263.0</ele><time>2026-04-15T14:18:27.999Z</time></trkpt><trkpt lat="46.71309096682694" lon="4.690256388706627"><ele>263.0</ele><time>2026-04-15T14:18:33.999Z</time></trkpt><trkpt lat="46.71304048043399" lon="4.690413689245182"><ele>263.0</ele><time>2026-04-15T14:18:36.999Z</time></trkpt><trkpt lat="46.71304434332244" lon="4.690227688822454"><ele>263.0</ele><time>2026-04-15T14:18:39.999Z</time></trkpt><trkpt lat="46.71318114239155" lon="4.690225406251264"><ele>263.0</ele><time>2026-04-15T14:21:52.999Z</time></trkpt><trkpt lat="46.71300060209064" lon="4.690138696738651"><ele>263.0</ele><time>2026-04-15T14:23:50.999Z</time></trkpt><trkpt lat="46.7129294920994" lon="4.69014902116504"><ele>263.0</ele><time>2026-04-15T14:23:57.999Z</time></trkpt><trkpt lat="46.71287439229443" lon="4.690208149737056"><ele>263.0</ele><time>2026-04-15T14:24:00.999Z</time></trkpt><trkpt lat="46.71281481691238" lon="4.69027365868033"><ele>263.0</ele><time>2026-04-15T14:24:03.999Z</time></trkpt><trkpt lat="46.71274587723713" lon="4.690300436336373"><ele>262.7142857142857</ele><time>2026-04-15T14:24:05.999Z</time></trkpt><trkpt lat="46.71267895469821" lon="4.690275993579603"><ele>262.4285714285714</ele><time>2026-04-15T14:24:07.999Z</time></trkpt><trkpt lat="46.71261006620276" lon="4.690250773127359"><ele>262.1428571428571</ele><time>2026-04-15T14:24:09.999Z</time></trkpt><trkpt lat="46.71254895498384" lon="4.690224327366795"><ele>261.85714285714283</ele><time>2026-04-15T14:24:11.999Z</time></trkpt><trkpt lat="46.71247464782179" lon="4.690205656789843"><ele>261.57142857142856</ele><time>2026-04-15T14:24:14.999Z</time></trkpt><trkpt lat="46.71240888791833" lon="4.690237627302914"><ele>261.2857142857143</ele><time>2026-04-15T14:24:16.999Z</time></trkpt><trkpt lat="46.712312326361946" lon="4.690278066004844"><ele>261.0</ele><time>2026-04-15T14:24:18.999Z</time></trkpt><trkpt lat="46.712197514927844" lon="4.690290597182877"><ele>261.0</ele><time>2026-04-15T14:24:21Z</time></trkpt><trkpt lat="46.71207432897508" lon="4.690308804446303"><ele>261.0</ele><time>2026-04-15T14:24:23Z</time></trkpt><trkpt lat="46.711958461143716" lon="4.69030001749291"><ele>261.0</ele><time>2026-04-15T14:24:25Z</time></trkpt><trkpt lat="46.71187995302329" lon="4.690363292305308"><ele>261.0</ele><time>2026-04-15T14:24:27Z</time></trkpt><trkpt lat="46.7118041367342" lon="4.690423951986347"><ele>261.0</ele><time>2026-04-15T14:24:29Z</time></trkpt><trkpt lat="46.71181651671879" lon="4.690558110757748"><ele>261.0</ele><time>2026-04-15T14:24:31Z</time></trkpt><trkpt lat="46.711851899093205" lon="4.690636941114894"><ele>261.0</ele><time>2026-04-15T14:24:34Z</time></trkpt><trkpt lat="46.71198126080597" lon="4.690792431772986"><ele>261.0</ele><time>2026-04-15T14:24:35Z</time></trkpt><trkpt lat="46.71204294396551" lon="4.690877214890388"><ele>261.0</ele><time>2026-04-15T14:24:36Z</time></trkpt><trkpt lat="46.7120910706457" lon="4.690959240588435"><ele>261.0</ele><time>2026-04-15T14:24:37Z</time></trkpt><trkpt lat="46.712136380816276" lon="4.691062594300099"><ele>260.5</ele><time>2026-04-15T14:24:38Z</time></trkpt><trkpt lat="46.71218323644287" lon="4.691159516653358"><ele>260.0</ele><time>2026-04-15T14:24:39Z</time></trkpt><trkpt lat="46.712220856857066" lon="4.691264781533256"><ele>259.5</ele><time>2026-04-15T14:24:40Z</time></trkpt><trkpt lat="46.71225449165085" lon="4.691382551359229"><ele>259.0</ele><time>2026-04-15T14:24:41Z</time></trkpt><trkpt lat="46.7122859604543" lon="4.691491947082532"><ele>258.5</ele><time>2026-04-15T14:24:42Z</time></trkpt><trkpt lat="46.71230324075284" lon="4.6916086423818895"><ele>258.0</ele><time>2026-04-15T14:24:43Z</time></trkpt><trkpt lat="46.71232342460422" lon="4.691741549940742"><ele>258.0</ele><time>2026-04-15T14:24:44Z</time></trkpt><trkpt lat="46.71232212559834" lon="4.691858312396141"><ele>258.0</ele><time>2026-04-15T14:24:45Z</time></trkpt><trkpt lat="46.71232152817255" lon="4.691988082691789"><ele>258.0</ele><time>2026-04-15T14:24:46Z</time></trkpt><trkpt lat="46.71232724992809" lon="4.6921146941997165"><ele>258.0</ele><time>2026-04-15T14:24:47Z</time></trkpt><trkpt lat="46.71231525380129" lon="4.692237405216698"><ele>258.0</ele><time>2026-04-15T14:24:48Z</time></trkpt><trkpt lat="46.71229371834222" lon="4.69236222561696"><ele>258.0</ele><time>2026-04-15T14:24:49Z</time></trkpt><trkpt lat="46.71225739085521" lon="4.69248534439103"><ele>257.8333333333333</ele><time>2026-04-15T14:24:50Z</time></trkpt><trkpt lat="46.71221515838654" lon="4.692602468135796"><ele>257.6666666666667</ele><time>2026-04-15T14:24:51Z</time></trkpt><trkpt lat="46.71217486073299" lon="4.6927159536029075"><ele>257.5</ele><time>2026-04-15T14:24:52Z</time></trkpt><trkpt lat="46.71214552743646" lon="4.692831022702614"><ele>257.33333333333337</ele><time>2026-04-15T14:24:53Z</time></trkpt><trkpt lat="46.712122868712804" lon="4.692945241810442"><ele>257.1666666666667</ele><time>2026-04-15T14:24:54Z</time></trkpt><trkpt lat="46.7120905602218" lon="4.693057638375475"><ele>257.0</ele><time>2026-04-15T14:24:55Z</time></trkpt><trkpt lat="46.7120765104049" lon="4.693178451607072"><ele>256.6</ele><time>2026-04-15T14:24:56Z</time></trkpt><trkpt lat="46.71206525528838" lon="4.6932902751250545"><ele>256.2</ele><time>2026-04-15T14:24:57Z</time></trkpt><trkpt lat="46.71201713676852" lon="4.693438771949742"><ele>255.8</ele><time>2026-04-15T14:24:59Z</time></trkpt><trkpt lat="46.711982247752836" lon="4.693519724515534"><ele>255.4</ele><time>2026-04-15T14:25:01Z</time></trkpt><trkpt lat="46.7118547326673" lon="4.6934344315285195"><ele>255.0</ele><time>2026-04-15T14:25:04Z</time></trkpt><trkpt lat="46.71176992997551" lon="4.693392514905888"><ele>255.0</ele><time>2026-04-15T14:25:06Z</time></trkpt><trkpt lat="46.7116712245165" lon="4.693299338650609"><ele>255.0</ele><time>2026-04-15T14:25:08Z</time></trkpt><trkpt lat="46.71158302208703" lon="4.693247323540923"><ele>255.0</ele><time>2026-04-15T14:25:10Z</time></trkpt><trkpt lat="46.71147682643772" lon="4.693219756180182"><ele>255.0</ele><time>2026-04-15T14:25:12Z</time></trkpt><trkpt lat="46.711399111431646" lon="4.693331492818012"><ele>255.0</ele><time>2026-04-15T14:25:15Z</time></trkpt><trkpt lat="46.71138437515873" lon="4.6934276641978805"><ele>255.0</ele><time>2026-04-15T14:25:16Z</time></trkpt><trkpt lat="46.71133616897478" lon="4.693500780415118"><ele>255.0</ele><time>2026-04-15T14:25:17Z</time></trkpt><trkpt lat="46.71128501229473" lon="4.693589602656842"><ele>255.0</ele><time>2026-04-15T14:25:18Z</time></trkpt><trkpt lat="46.71122368003231" lon="4.693683169352329"><ele>255.0</ele><time>2026-04-15T14:25:19Z</time></trkpt><trkpt lat="46.711158312850124" lon="4.69379238616918"><ele>255.0</ele><time>2026-04-15T14:25:20Z</time></trkpt><trkpt lat="46.71110650259358" lon="4.693897391421332"><ele>255.0</ele><time>2026-04-15T14:25:21Z</time></trkpt><trkpt lat="46.711054073853596" lon="4.693998960231503"><ele>253.66666666666666</ele><time>2026-04-15T14:25:22Z</time></trkpt><trkpt lat="46.71099782029053" lon="4.694099965403236"><ele>252.33333333333331</ele><time>2026-04-15T14:25:23Z</time></trkpt><trkpt lat="46.71095755909544" lon="4.69419294755876"><ele>251.0</ele><time>2026-04-15T14:25:24Z</time></trkpt><trkpt lat="46.71093882242826" lon="4.6942907086032255"><ele>249.66666666666666</ele><time>2026-04-15T14:25:25Z</time></trkpt><trkpt lat="46.71095976898783" lon="4.694385388813427"><ele>248.33333333333331</ele><time>2026-04-15T14:25:25.999Z</time></trkpt><trkpt lat="46.710882265666946" lon="4.69451030511343"><ele>247.0</ele><time>2026-04-15T14:25:27.999Z</time></trkpt><trkpt lat="46.71083926231727" lon="4.694600103072677"><ele>246.39999999999998</ele><time>2026-04-15T14:25:28.999Z</time></trkpt><trkpt lat="46.71077475752863" lon="4.694760804586861"><ele>245.79999999999998</ele><time>2026-04-15T14:25:30.999Z</time></trkpt><trkpt lat="46.71071555242572" lon="4.694810484694931"><ele>245.2</ele><time>2026-04-15T14:25:31.999Z</time></trkpt><trkpt lat="46.71066557543933" lon="4.694869624555586"><ele>244.6</ele><time>2026-04-15T14:25:32.999Z</time></trkpt><trkpt lat="46.71067070196607" lon="4.695029951822356"><ele>244.0</ele><time>2026-04-15T14:25:33.999Z</time></trkpt><trkpt lat="46.710642823068305" lon="4.695143338685367"><ele>243.99999999999997</ele><time>2026-04-15T14:25:34.999Z</time></trkpt><trkpt lat="46.71062002607301" lon="4.695239366858708"><ele>244.0</ele><time>2026-04-15T14:25:35.999Z</time></trkpt><trkpt lat="46.71061661032264" lon="4.695362356000176"><ele>244.0</ele><time>2026-04-15T14:25:36.999Z</time></trkpt><trkpt lat="46.710590554781774" lon="4.69546700360816"><ele>244.0</ele><time>2026-04-15T14:25:37.999Z</time></trkpt><trkpt lat="46.710585999633636" lon="4.695591042127785"><ele>243.99999999999997</ele><time>2026-04-15T14:25:38.999Z</time></trkpt><trkpt lat="46.71055086364213" lon="4.6956879172779455"><ele>244.0</ele><time>2026-04-15T14:25:39.999Z</time></trkpt><trkpt lat="46.71053434079054" lon="4.695795187576734"><ele>243.66666666666666</ele><time>2026-04-15T14:25:40.999Z</time></trkpt><trkpt lat="46.710456880581006" lon="4.695861333732494"><ele>243.33333333333331</ele><time>2026-04-15T14:25:41.999Z</time></trkpt><trkpt lat="46.710388228408576" lon="4.695909374491355"><ele>243.0</ele><time>2026-04-15T14:25:42.999Z</time></trkpt><trkpt lat="46.7103376692693" lon="4.6959937677718875"><ele>242.66666666666669</ele><time>2026-04-15T14:25:43.999Z</time></trkpt><trkpt lat="46.71028081423304" lon="4.696074915647891"><ele>242.33333333333334</ele><time>2026-04-15T14:25:44.999Z</time></trkpt><trkpt lat="46.710235472315865" lon="4.696169897018401"><ele>242.0</ele><time>2026-04-15T14:25:45.999Z</time></trkpt><trkpt lat="46.71017545986475" lon="4.696244957428086"><ele>241.33333333333334</ele><time>2026-04-15T14:25:46.999Z</time></trkpt><trkpt lat="46.710124725300176" lon="4.696332333117466"><ele>240.66666666666669</ele><time>2026-04-15T14:25:47.999Z</time></trkpt><trkpt lat="46.71006947146107" lon="4.696416853502377"><ele>240.0</ele><time>2026-04-15T14:25:48.999Z</time></trkpt><trkpt lat="46.71001360775809" lon="4.696484049854327"><ele>239.33333333333331</ele><time>2026-04-15T14:25:49.999Z</time></trkpt><trkpt lat="46.709947371899354" lon="4.6965287339944455"><ele>238.66666666666666</ele><time>2026-04-15T14:25:50.999Z</time></trkpt><trkpt lat="46.70988210803706" lon="4.696591909649995"><ele>238.0</ele><time>2026-04-15T14:25:51.999Z</time></trkpt><trkpt lat="46.70981081074215" lon="4.696620579083146"><ele>237.99999999999997</ele><time>2026-04-15T14:25:52.999Z</time></trkpt><trkpt lat="46.70974812542066" lon="4.696671697644197"><ele>238.0</ele><time>2026-04-15T14:25:53.999Z</time></trkpt><trkpt lat="46.709692097680225" lon="4.696716567699941"><ele>238.0</ele><time>2026-04-15T14:25:54.999Z</time></trkpt><trkpt lat="46.70962249773811" lon="4.696762936428715"><ele>238.0</ele><time>2026-04-15T14:25:55.999Z</time></trkpt><trkpt lat="46.70956111942856" lon="4.69680788027793"><ele>237.99999999999997</ele><time>2026-04-15T14:25:56.999Z</time></trkpt><trkpt lat="46.709491706201945" lon="4.696837171416874"><ele>238.0</ele><time>2026-04-15T14:25:57.999Z</time></trkpt><trkpt lat="46.709386337519106" lon="4.69693318011637"><ele>238.8</ele><time>2026-04-15T14:25:59.999Z</time></trkpt><trkpt lat="46.70928033219955" lon="4.697028192288343"><ele>239.60000000000002</ele><time>2026-04-15T14:26:01.999Z</time></trkpt><trkpt lat="46.70920103643944" lon="4.697178528472216"><ele>240.39999999999998</ele><time>2026-04-15T14:26:03.999Z</time></trkpt><trkpt lat="46.709134604464815" lon="4.697328929349632"><ele>241.2</ele><time>2026-04-15T14:26:05.999Z</time></trkpt><trkpt lat="46.70910420555714" lon="4.697415897589338"><ele>242.0</ele><time>2026-04-15T14:26:06.999Z</time></trkpt><trkpt lat="46.70905432640408" lon="4.697590641603778"><ele>241.8</ele><time>2026-04-15T14:26:08.999Z</time></trkpt><trkpt lat="46.70901738975947" lon="4.697763117128372"><ele>241.6</ele><time>2026-04-15T14:26:10.999Z</time></trkpt><trkpt lat="46.7090124456863" lon="4.697857469420899"><ele>241.40000000000003</ele><time>2026-04-15T14:26:11.999Z</time></trkpt><trkpt lat="46.70902375732214" lon="4.6980485494496245"><ele>241.20000000000002</ele><time>2026-04-15T14:26:13.999Z</time></trkpt><trkpt lat="46.709044040249246" lon="4.698137639722648"><ele>241.0</ele><time>2026-04-15T14:26:14.999Z</time></trkpt><trkpt lat="46.709071199680785" lon="4.698314810080329"><ele>241.0</ele><time>2026-04-15T14:26:16.999Z</time></trkpt><trkpt lat="46.709073256925954" lon="4.698499352871526"><ele>241.00000000000003</ele><time>2026-04-15T14:26:18.999Z</time></trkpt><trkpt lat="46.709064329884555" lon="4.698686283395664"><ele>241.00000000000003</ele><time>2026-04-15T14:26:20.999Z</time></trkpt><trkpt lat="46.709063013410365" lon="4.698778751756262"><ele>241.0</ele><time>2026-04-15T14:26:21.999Z</time></trkpt><trkpt lat="46.70902789106898" lon="4.698950182002849"><ele>241.0</ele><time>2026-04-15T14:26:23.999Z</time></trkpt><trkpt lat="46.7090105114869" lon="4.699045661373948"><ele>241.20000000000002</ele><time>2026-04-15T14:26:24.999Z</time></trkpt><trkpt lat="46.708983919927086" lon="4.699231885026646"><ele>241.40000000000003</ele><time>2026-04-15T14:26:27Z</time></trkpt><trkpt lat="46.70895479845446" lon="4.699314568247967"><ele>241.6</ele><time>2026-04-15T14:26:28Z</time></trkpt><trkpt lat="46.70891218967912" lon="4.699504061414067"><ele>241.8</ele><time>2026-04-15T14:26:30Z</time></trkpt><trkpt lat="46.708890341858854" lon="4.699600098298543"><ele>242.0</ele><time>2026-04-15T14:26:31Z</time></trkpt><trkpt lat="46.70885879229907" lon="4.699682019600053"><ele>242.14285714285714</ele><time>2026-04-15T14:26:32Z</time></trkpt><trkpt lat="46.70883778738194" lon="4.699772298865033"><ele>242.28571428571428</ele><time>2026-04-15T14:26:33Z</time></trkpt><trkpt lat="46.70882132068786" lon="4.6998642334313985"><ele>242.42857142857142</ele><time>2026-04-15T14:26:34Z</time></trkpt><trkpt lat="46.70879550438236" lon="4.699966862239836"><ele>242.57142857142856</ele><time>2026-04-15T14:26:35Z</time></trkpt><trkpt lat="46.708773927825725" lon="4.700060854996225"><ele>242.71428571428572</ele><time>2026-04-15T14:26:36Z</time></trkpt><trkpt lat="46.70874960683604" lon="4.700157034212712"><ele>242.85714285714283</ele><time>2026-04-15T14:26:37Z</time></trkpt><trkpt lat="46.70870376494841" lon="4.700233378432043"><ele>243.0</ele><time>2026-04-15T14:26:38Z</time></trkpt><trkpt lat="46.70865964594257" lon="4.700306974173276"><ele>242.57142857142856</ele><time>2026-04-15T14:26:39Z</time></trkpt><trkpt lat="46.70860825226547" lon="4.700377739322079"><ele>242.14285714285717</ele><time>2026-04-15T14:26:40Z</time></trkpt><trkpt lat="46.70856374733922" lon="4.7004576268230736"><ele>241.71428571428572</ele><time>2026-04-15T14:26:41Z</time></trkpt><trkpt lat="46.708535891744894" lon="4.700559092711219"><ele>241.28571428571428</ele><time>2026-04-15T14:26:42Z</time></trkpt><trkpt lat="46.70850987425589" lon="4.700649069711003"><ele>240.85714285714283</ele><time>2026-04-15T14:26:43Z</time></trkpt><trkpt lat="46.7084904212752" lon="4.700759691129151"><ele>240.42857142857144</ele><time>2026-04-15T14:26:44Z</time></trkpt><trkpt lat="46.708468603899256" lon="4.700863679744397"><ele>240.0</ele><time>2026-04-15T14:26:45Z</time></trkpt><trkpt lat="46.708448910686556" lon="4.700972971500959"><ele>240.0</ele><time>2026-04-15T14:26:46Z</time></trkpt><trkpt lat="46.708410319066374" lon="4.701080179486599"><ele>240.0</ele><time>2026-04-15T14:26:47Z</time></trkpt><trkpt lat="46.70838692908111" lon="4.701193062817199"><ele>240.0</ele><time>2026-04-15T14:26:48Z</time></trkpt><trkpt lat="46.70837897676738" lon="4.701311903198697"><ele>240.0</ele><time>2026-04-15T14:26:49Z</time></trkpt><trkpt lat="46.708348635924324" lon="4.701428546786905"><ele>240.0</ele><time>2026-04-15T14:26:50Z</time></trkpt><trkpt lat="46.708337290582016" lon="4.70155108526881"><ele>240.0</ele><time>2026-04-15T14:26:51Z</time></trkpt><trkpt lat="46.708360894603956" lon="4.701665767844672"><ele>239.5</ele><time>2026-04-15T14:26:52Z</time></trkpt><trkpt lat="46.70838563089843" lon="4.701779263458456"><ele>239.0</ele><time>2026-04-15T14:26:53Z</time></trkpt><trkpt lat="46.708411492704535" lon="4.701873691244764"><ele>238.5</ele><time>2026-04-15T14:26:54Z</time></trkpt><trkpt lat="46.70843614174526" lon="4.701964610196062"><ele>238.0</ele><time>2026-04-15T14:26:55Z</time></trkpt><trkpt lat="46.708482064080734" lon="4.70212785577351"><ele>237.5</ele><time>2026-04-15T14:26:57Z</time></trkpt><trkpt lat="46.70850252255026" lon="4.70228070236329"><ele>237.0</ele><time>2026-04-15T14:26:59Z</time></trkpt><trkpt lat="46.70844901224444" lon="4.702440012118113"><ele>236.16666666666666</ele><time>2026-04-15T14:27:01Z</time></trkpt><trkpt lat="46.708382080876" lon="4.702493182648513"><ele>235.33333333333331</ele><time>2026-04-15T14:27:02Z</time></trkpt><trkpt lat="46.708305230755755" lon="4.702510533787445"><ele>234.5</ele><time>2026-04-15T14:27:02.999Z</time></trkpt><trkpt lat="46.70822463006705" lon="4.702489082329067"><ele>233.66666666666666</ele><time>2026-04-15T14:27:03.999Z</time></trkpt><trkpt lat="46.7081513761149" lon="4.702457727450187"><ele>232.83333333333331</ele><time>2026-04-15T14:27:04.999Z</time></trkpt><trkpt lat="46.70807584992482" lon="4.702445547028836"><ele>232.0</ele><time>2026-04-15T14:27:05.999Z</time></trkpt><trkpt lat="46.70800421670008" lon="4.702464160701398"><ele>231.99999999999997</ele><time>2026-04-15T14:27:06.999Z</time></trkpt><trkpt lat="46.70793040365225" lon="4.702502372623092"><ele>232.0</ele><time>2026-04-15T14:27:07.999Z</time></trkpt><trkpt lat="46.70785732607007" lon="4.702537764897505"><ele>232.0</ele><time>2026-04-15T14:27:08.999Z</time></trkpt><trkpt lat="46.7077923795124" lon="4.7025679587737335"><ele>232.0</ele><time>2026-04-15T14:27:09.999Z</time></trkpt><trkpt lat="46.70770413245091" lon="4.702586205372244"><ele>231.99999999999997</ele><time>2026-04-15T14:27:11.999Z</time></trkpt><trkpt lat="46.70757694248716" lon="4.7025463813490145"><ele>232.0</ele><time>2026-04-15T14:27:13.999Z</time></trkpt><trkpt lat="46.70750159204231" lon="4.702537662863115"><ele>231.8571428571429</ele><time>2026-04-15T14:27:14.999Z</time></trkpt><trkpt lat="46.70743099621638" lon="4.702577452230006"><ele>231.71428571428572</ele><time>2026-04-15T14:27:15.999Z</time></trkpt><trkpt lat="46.707370430055576" lon="4.70262133121028"><ele>231.57142857142858</ele><time>2026-04-15T14:27:16.999Z</time></trkpt><trkpt lat="46.70729397879926" lon="4.7026547740860325"><ele>231.42857142857144</ele><time>2026-04-15T14:27:17.999Z</time></trkpt><trkpt lat="46.70722129878814" lon="4.702678099522509"><ele>231.28571428571428</ele><time>2026-04-15T14:27:18.999Z</time></trkpt><trkpt lat="46.7071544321213" lon="4.702715981686796"><ele>231.14285714285714</ele><time>2026-04-15T14:27:19.999Z</time></trkpt><trkpt lat="46.70708486929924" lon="4.702755030519324"><ele>231.0</ele><time>2026-04-15T14:27:20.999Z</time></trkpt><trkpt lat="46.70701819289554" lon="4.702791437399211"><ele>230.16666666666666</ele><time>2026-04-15T14:27:21.999Z</time></trkpt><trkpt lat="46.70694015636741" lon="4.7028184801256705"><ele>229.33333333333331</ele><time>2026-04-15T14:27:22.999Z</time></trkpt><trkpt lat="46.706866778464885" lon="4.7028543168589305"><ele>228.5</ele><time>2026-04-15T14:27:23.999Z</time></trkpt><trkpt lat="46.70679336290412" lon="4.7028897358898405"><ele>227.66666666666666</ele><time>2026-04-15T14:27:24.999Z</time></trkpt><trkpt lat="46.70671262582983" lon="4.702921829359095"><ele>226.83333333333331</ele><time>2026-04-15T14:27:25.999Z</time></trkpt><trkpt lat="46.70664219343605" lon="4.702951593931105"><ele>226.0</ele><time>2026-04-15T14:27:26.999Z</time></trkpt><trkpt lat="46.70656781789413" lon="4.702984856194943"><ele>225.33333333333331</ele><time>2026-04-15T14:27:27.999Z</time></trkpt><trkpt lat="46.70648424615327" lon="4.703014514075478"><ele>224.66666666666666</ele><time>2026-04-15T14:27:28.999Z</time></trkpt><trkpt lat="46.70641692595902" lon="4.703050752960503"><ele>224.0</ele><time>2026-04-15T14:27:29.999Z</time></trkpt><trkpt lat="46.70634207502463" lon="4.703092093950584"><ele>223.33333333333331</ele><time>2026-04-15T14:27:30.999Z</time></trkpt><trkpt lat="46.706265055636884" lon="4.703126094424602"><ele>222.66666666666666</ele><time>2026-04-15T14:27:31.999Z</time></trkpt><trkpt lat="46.70618757924413" lon="4.703161127493073"><ele>222.0</ele><time>2026-04-15T14:27:32.999Z</time></trkpt><trkpt lat="46.7061091863866" lon="4.70321185215197"><ele>222.0</ele><time>2026-04-15T14:27:33.999Z</time></trkpt><trkpt lat="46.70602750110041" lon="4.703249241207716"><ele>222.0</ele><time>2026-04-15T14:27:34.999Z</time></trkpt><trkpt lat="46.705957324023096" lon="4.703290443668518"><ele>222.0</ele><time>2026-04-15T14:27:35.999Z</time></trkpt><trkpt lat="46.70587987446269" lon="4.703328661423375"><ele>222.0</ele><time>2026-04-15T14:27:36.999Z</time></trkpt><trkpt lat="46.70580593742734" lon="4.703359884454724"><ele>222.0</ele><time>2026-04-15T14:27:37.999Z</time></trkpt><trkpt lat="46.705728267834694" lon="4.7033877725311"><ele>222.0</ele><time>2026-04-15T14:27:38.999Z</time></trkpt><trkpt lat="46.705654245627414" lon="4.703419622830871"><ele>222.0</ele><time>2026-04-15T14:27:39.999Z</time></trkpt><trkpt lat="46.70557934286245" lon="4.703457090436818"><ele>222.0</ele><time>2026-04-15T14:27:40.999Z</time></trkpt><trkpt lat="46.70550190666609" lon="4.703504296489897"><ele>222.0</ele><time>2026-04-15T14:27:41.999Z</time></trkpt><trkpt lat="46.705427805114724" lon="4.703536334728782"><ele>222.0</ele><time>2026-04-15T14:27:42.999Z</time></trkpt><trkpt lat="46.70535126283168" lon="4.703568638849489"><ele>222.0</ele><time>2026-04-15T14:27:43.999Z</time></trkpt><trkpt lat="46.70527143486503" lon="4.703610091761388"><ele>222.0</ele><time>2026-04-15T14:27:44.999Z</time></trkpt><trkpt lat="46.70519251227286" lon="4.703652542570094"><ele>221.83333333333334</ele><time>2026-04-15T14:27:45.999Z</time></trkpt><trkpt lat="46.70511626028038" lon="4.703701636365307"><ele>221.66666666666669</ele><time>2026-04-15T14:27:46.999Z</time></trkpt><trkpt lat="46.705040272170685" lon="4.703726579932693"><ele>221.5</ele><time>2026-04-15T14:27:47.999Z</time></trkpt><trkpt lat="46.70496479769943" lon="4.703766016344765"><ele>221.33333333333334</ele><time>2026-04-15T14:27:48.999Z</time></trkpt><trkpt lat="46.704888913306725" lon="4.703802723890189"><ele>221.16666666666669</ele><time>2026-04-15T14:27:49.999Z</time></trkpt><trkpt lat="46.70481077479004" lon="4.703840468652979"><ele>221.0</ele><time>2026-04-15T14:27:50.999Z</time></trkpt><trkpt lat="46.704733381901285" lon="4.703886378466467"><ele>221.00000000000003</ele><time>2026-04-15T14:27:51.999Z</time></trkpt><trkpt lat="46.70466012159889" lon="4.703924111796135"><ele>221.0</ele><time>2026-04-15T14:27:52.999Z</time></trkpt><trkpt lat="46.70458730467325" lon="4.7039535360478535"><ele>221.0</ele><time>2026-04-15T14:27:53.999Z</time></trkpt><trkpt lat="46.704513352200685" lon="4.7039910113231675"><ele>221.0</ele><time>2026-04-15T14:27:54.999Z</time></trkpt><trkpt lat="46.70444185373276" lon="4.70402963100292"><ele>221.00000000000003</ele><time>2026-04-15T14:27:55.999Z</time></trkpt><trkpt lat="46.70437603563309" lon="4.70406513599216"><ele>221.0</ele><time>2026-04-15T14:27:56.999Z</time></trkpt><trkpt lat="46.70429917287096" lon="4.70410003229781"><ele>221.42857142857144</ele><time>2026-04-15T14:27:57.999Z</time></trkpt><trkpt lat="46.704223386844404" lon="4.7041361462180635"><ele>221.85714285714286</ele><time>2026-04-15T14:27:58.999Z</time></trkpt><trkpt lat="46.70415308009309" lon="4.7041721059883566"><ele>222.28571428571428</ele><time>2026-04-15T14:27:59.999Z</time></trkpt><trkpt lat="46.704084863720425" lon="4.7042089866725565"><ele>222.71428571428572</ele><time>2026-04-15T14:28:00.999Z</time></trkpt><trkpt lat="46.704014592397534" lon="4.704246628617341"><ele>223.14285714285714</ele><time>2026-04-15T14:28:01.999Z</time></trkpt><trkpt lat="46.703945619642575" lon="4.704279629125566"><ele>223.57142857142858</ele><time>2026-04-15T14:28:02.999Z</time></trkpt><trkpt lat="46.703877861622985" lon="4.704318327880202"><ele>224.0</ele><time>2026-04-15T14:28:03.999Z</time></trkpt><trkpt lat="46.70380879652441" lon="4.704348008004047"><ele>224.0</ele><time>2026-04-15T14:28:04.999Z</time></trkpt><trkpt lat="46.703739837455764" lon="4.704377113089449"><ele>224.0</ele><time>2026-04-15T14:28:05.999Z</time></trkpt><trkpt lat="46.70366778302381" lon="4.704410262991006"><ele>224.0</ele><time>2026-04-15T14:28:06.999Z</time></trkpt><trkpt lat="46.703599001244996" lon="4.704442992999344"><ele>224.0</ele><time>2026-04-15T14:28:07.999Z</time></trkpt><trkpt lat="46.70352997834147" lon="4.704476183805612"><ele>224.0</ele><time>2026-04-15T14:28:08.999Z</time></trkpt><trkpt lat="46.70346629656899" lon="4.7045085075908535"><ele>224.0</ele><time>2026-04-15T14:28:09.999Z</time></trkpt><trkpt lat="46.70339202801472" lon="4.704537798901358"><ele>224.0</ele><time>2026-04-15T14:28:10.999Z</time></trkpt><trkpt lat="46.70333200315096" lon="4.704578014168125"><ele>224.00000000000003</ele><time>2026-04-15T14:28:11.999Z</time></trkpt><trkpt lat="46.70326201886529" lon="4.704609915524187"><ele>224.0</ele><time>2026-04-15T14:28:12.999Z</time></trkpt><trkpt lat="46.70320161976909" lon="4.704641672709526"><ele>224.0</ele><time>2026-04-15T14:28:13.999Z</time></trkpt><trkpt lat="46.70313443801882" lon="4.704666815290643"><ele>224.0</ele><time>2026-04-15T14:28:14.999Z</time></trkpt><trkpt lat="46.70306579968163" lon="4.70469525056984"><ele>224.00000000000003</ele><time>2026-04-15T14:28:15.999Z</time></trkpt><trkpt lat="46.7029984051583" lon="4.704727466044695"><ele>224.0</ele><time>2026-04-15T14:28:16.999Z</time></trkpt><trkpt lat="46.702870651106736" lon="4.704784503375088"><ele>224.0</ele><time>2026-04-15T14:28:18.999Z</time></trkpt><trkpt lat="46.702807064580924" lon="4.704816810646208"><ele>224.0</ele><time>2026-04-15T14:28:19.999Z</time></trkpt><trkpt lat="46.702740717348405" lon="4.7048488463568825"><ele>224.0</ele><time>2026-04-15T14:28:20.999Z</time></trkpt><trkpt lat="46.70267719792824" lon="4.704881260522754"><ele>224.0</ele><time>2026-04-15T14:28:21.999Z</time></trkpt><trkpt lat="46.70261367101465" lon="4.704909904573958"><ele>224.0</ele><time>2026-04-15T14:28:22.999Z</time></trkpt><trkpt lat="46.702544567988625" lon="4.704938064580206"><ele>224.0</ele><time>2026-04-15T14:28:23.999Z</time></trkpt><trkpt lat="46.702479723558525" lon="4.704967764122052"><ele>224.0</ele><time>2026-04-15T14:28:24.999Z</time></trkpt><trkpt lat="46.702416726741795" lon="4.705003658820941"><ele>223.83333333333334</ele><time>2026-04-15T14:28:25.999Z</time></trkpt><trkpt lat="46.702354986893575" lon="4.7050358225600295"><ele>223.66666666666669</ele><time>2026-04-15T14:28:26.999Z</time></trkpt><trkpt lat="46.702291934635866" lon="4.705067379008944"><ele>223.5</ele><time>2026-04-15T14:28:27.999Z</time></trkpt><trkpt lat="46.7021723974446" lon="4.705132883196132"><ele>223.33333333333331</ele><time>2026-04-15T14:28:29.999Z</time></trkpt><trkpt lat="46.70210550539243" lon="4.7051603478600015"><ele>223.16666666666666</ele><time>2026-04-15T14:28:30.999Z</time></trkpt><trkpt lat="46.702040824540646" lon="4.705184021512728"><ele>223.0</ele><time>2026-04-15T14:28:31.999Z</time></trkpt><trkpt lat="46.70192227172196" lon="4.705242470615964"><ele>222.60000000000002</ele><time>2026-04-15T14:28:33.999Z</time></trkpt><trkpt lat="46.701815154467695" lon="4.705307138886313"><ele>222.20000000000002</ele><time>2026-04-15T14:28:36Z</time></trkpt><trkpt lat="46.70171923141535" lon="4.705341331598136"><ele>221.8</ele><time>2026-04-15T14:28:38Z</time></trkpt><trkpt lat="46.701681092160186" lon="4.705470152184427"><ele>221.4</ele><time>2026-04-15T14:28:41Z</time></trkpt><trkpt lat="46.70164930349286" lon="4.705600128277035"><ele>221.0</ele><time>2026-04-15T14:28:43Z</time></trkpt><trkpt lat="46.70165703625224" lon="4.705694658241974"><ele>221.00000000000003</ele><time>2026-04-15T14:28:44Z</time></trkpt><trkpt lat="46.70164161713368" lon="4.70578777538871"><ele>221.0</ele><time>2026-04-15T14:28:45Z</time></trkpt><trkpt lat="46.70162782342303" lon="4.705890285240485"><ele>221.0</ele><time>2026-04-15T14:28:46Z</time></trkpt><trkpt lat="46.701597107694695" lon="4.7059889529992"><ele>221.0</ele><time>2026-04-15T14:28:47Z</time></trkpt><trkpt lat="46.7015770389462" lon="4.706086816490403"><ele>221.00000000000003</ele><time>2026-04-15T14:28:48Z</time></trkpt><trkpt lat="46.70150941436349" lon="4.706171881088685"><ele>221.0</ele><time>2026-04-15T14:28:49Z</time></trkpt><trkpt lat="46.70143907757653" lon="4.706247085166831"><ele>220.83333333333334</ele><time>2026-04-15T14:28:50Z</time></trkpt><trkpt lat="46.70136140911377" lon="4.706299662935569"><ele>220.66666666666669</ele><time>2026-04-15T14:28:51Z</time></trkpt><trkpt lat="46.701279349532854" lon="4.706333877565541"><ele>220.5</ele><time>2026-04-15T14:28:52Z</time></trkpt><trkpt lat="46.70119551478398" lon="4.706348179020031"><ele>220.33333333333331</ele><time>2026-04-15T14:28:53Z</time></trkpt><trkpt lat="46.70111186880016" lon="4.706355224446193"><ele>220.16666666666666</ele><time>2026-04-15T14:28:54Z</time></trkpt><trkpt lat="46.70103459000511" lon="4.706359091718444"><ele>220.0</ele><time>2026-04-15T14:28:55Z</time></trkpt><trkpt lat="46.70095551473916" lon="4.706373683144654"><ele>219.85714285714283</ele><time>2026-04-15T14:28:56Z</time></trkpt><trkpt lat="46.700882022207345" lon="4.706380926456845"><ele>219.71428571428572</ele><time>2026-04-15T14:28:57Z</time></trkpt><trkpt lat="46.700806783548884" lon="4.706394090298467"><ele>219.57142857142856</ele><time>2026-04-15T14:28:58Z</time></trkpt><trkpt lat="46.700734179075" lon="4.7063965617735315"><ele>219.42857142857142</ele><time>2026-04-15T14:28:59Z</time></trkpt><trkpt lat="46.700662131871724" lon="4.7064191802288216"><ele>219.28571428571428</ele><time>2026-04-15T14:29:00Z</time></trkpt><trkpt lat="46.70059150703934" lon="4.706427310696538"><ele>219.14285714285714</ele><time>2026-04-15T14:29:01Z</time></trkpt><trkpt lat="46.70052156265786" lon="4.706447281912481"><ele>219.0</ele><time>2026-04-15T14:29:02Z</time></trkpt><trkpt lat="46.70045447804026" lon="4.706465339042566"><ele>219.0</ele><time>2026-04-15T14:29:03Z</time></trkpt><trkpt lat="46.70039061222412" lon="4.706496747616852"><ele>219.0</ele><time>2026-04-15T14:29:04Z</time></trkpt><trkpt lat="46.70032817323059" lon="4.706526491792416"><ele>219.0</ele><time>2026-04-15T14:29:05Z</time></trkpt><trkpt lat="46.70027569703131" lon="4.706592121322609"><ele>219.0</ele><time>2026-04-15T14:29:06Z</time></trkpt><trkpt lat="46.70017919230187" lon="4.70667363439126"><ele>219.0</ele><time>2026-04-15T14:29:08Z</time></trkpt><trkpt lat="46.70012973533693" lon="4.706738011488094"><ele>219.0</ele><time>2026-04-15T14:29:09Z</time></trkpt><trkpt lat="46.70008294423734" lon="4.706806026896994"><ele>219.0</ele><time>2026-04-15T14:29:10Z</time></trkpt><trkpt lat="46.700006383338255" lon="4.706949427630903"><ele>219.2</ele><time>2026-04-15T14:29:12Z</time></trkpt><trkpt lat="46.6999710180821" lon="4.707027116534998"><ele>219.39999999999998</ele><time>2026-04-15T14:29:13Z</time></trkpt><trkpt lat="46.699901516001745" lon="4.707178504153637"><ele>219.6</ele><time>2026-04-15T14:29:15Z</time></trkpt><trkpt lat="46.69983438655233" lon="4.707335213606233"><ele>219.8</ele><time>2026-04-15T14:29:17Z</time></trkpt><trkpt lat="46.69976981580265" lon="4.707488911828337"><ele>220.0</ele><time>2026-04-15T14:29:19Z</time></trkpt><trkpt lat="46.69973302716718" lon="4.707568899777365"><ele>220.0</ele><time>2026-04-15T14:29:20Z</time></trkpt><trkpt lat="46.69967186549402" lon="4.707726615507769"><ele>220.0</ele><time>2026-04-15T14:29:22Z</time></trkpt><trkpt lat="46.69960463124193" lon="4.707874784871066"><ele>220.0</ele><time>2026-04-15T14:29:24Z</time></trkpt><trkpt lat="46.699538014071734" lon="4.708026963934156"><ele>220.0</ele><time>2026-04-15T14:29:26Z</time></trkpt><trkpt lat="46.69950524028275" lon="4.708108955372746"><ele>220.0</ele><time>2026-04-15T14:29:27Z</time></trkpt><trkpt lat="46.69946782831945" lon="4.708182989779374"><ele>220.33333333333331</ele><time>2026-04-15T14:29:27.999Z</time></trkpt><trkpt lat="46.69939674125889" lon="4.708333200086118"><ele>220.66666666666666</ele><time>2026-04-15T14:29:29.999Z</time></trkpt><trkpt lat="46.69935770944632" lon="4.708407256454925"><ele>221.0</ele><time>2026-04-15T14:29:30.999Z</time></trkpt><trkpt lat="46.69931895615591" lon="4.708480414863123"><ele>221.33333333333331</ele><time>2026-04-15T14:29:31.999Z</time></trkpt><trkpt lat="46.69928084725993" lon="4.7085548675897915"><ele>221.66666666666666</ele><time>2026-04-15T14:29:32.999Z</time></trkpt><trkpt lat="46.69920248946294" lon="4.708699298464179"><ele>222.0</ele><time>2026-04-15T14:29:34.999Z</time></trkpt><trkpt lat="46.69916206643891" lon="4.708771977650515"><ele>222.0</ele><time>2026-04-15T14:29:35.999Z</time></trkpt><trkpt lat="46.699121876189324" lon="4.708842759626484"><ele>222.0</ele><time>2026-04-15T14:29:36.999Z</time></trkpt><trkpt lat="46.69908024192983" lon="4.708912448111934"><ele>222.0</ele><time>2026-04-15T14:29:37.999Z</time></trkpt><trkpt lat="46.699039696275705" lon="4.708982919873753"><ele>222.0</ele><time>2026-04-15T14:29:38.999Z</time></trkpt><trkpt lat="46.69899591693471" lon="4.7090534383689535"><ele>222.0</ele><time>2026-04-15T14:29:39.999Z</time></trkpt><trkpt lat="46.698909915417126" lon="4.709181968387082"><ele>222.0</ele><time>2026-04-15T14:29:41.999Z</time></trkpt><trkpt lat="46.69886340864036" lon="4.709247199338049"><ele>222.0</ele><time>2026-04-15T14:29:42.999Z</time></trkpt><trkpt lat="46.69876958821962" lon="4.70937021324591"><ele>222.0</ele><time>2026-04-15T14:29:44.999Z</time></trkpt><trkpt lat="46.69867279258396" lon="4.709485606818864"><ele>222.0</ele><time>2026-04-15T14:29:46.999Z</time></trkpt><trkpt lat="46.698569660263466" lon="4.7095969984856545"><ele>222.0</ele><time>2026-04-15T14:29:48.999Z</time></trkpt><trkpt lat="46.69851716998267" lon="4.709650045857091"><ele>222.0</ele><time>2026-04-15T14:29:49.999Z</time></trkpt><trkpt lat="46.69846297639106" lon="4.709702392233343"><ele>222.0</ele><time>2026-04-15T14:29:50.999Z</time></trkpt><trkpt lat="46.69840904563579" lon="4.709752127940343"><ele>222.0</ele><time>2026-04-15T14:29:51.999Z</time></trkpt><trkpt lat="46.69835377488741" lon="4.709803064798957"><ele>222.14285714285714</ele><time>2026-04-15T14:29:52.999Z</time></trkpt><trkpt lat="46.69830055900074" lon="4.7098541842967"><ele>222.2857142857143</ele><time>2026-04-15T14:29:53.999Z</time></trkpt><trkpt lat="46.6982443860649" lon="4.7099038882737885"><ele>222.42857142857144</ele><time>2026-04-15T14:29:54.999Z</time></trkpt><trkpt lat="46.698190222675194" lon="4.709955648247407"><ele>222.57142857142856</ele><time>2026-04-15T14:29:55.999Z</time></trkpt><trkpt lat="46.69813378536979" lon="4.7100088137229355"><ele>222.71428571428572</ele><time>2026-04-15T14:29:56.999Z</time></trkpt><trkpt lat="46.69808047932589" lon="4.710061169356364"><ele>222.85714285714286</ele><time>2026-04-15T14:29:57.999Z</time></trkpt><trkpt lat="46.698029388073394" lon="4.710118072084534"><ele>223.0</ele><time>2026-04-15T14:29:58.999Z</time></trkpt><trkpt lat="46.69797241008303" lon="4.710171215000864"><ele>222.83333333333331</ele><time>2026-04-15T14:29:59.999Z</time></trkpt><trkpt lat="46.69786600145124" lon="4.710263490637868"><ele>222.66666666666666</ele><time>2026-04-15T14:30:01.999Z</time></trkpt><trkpt lat="46.69781401698932" lon="4.710323423482883"><ele>222.5</ele><time>2026-04-15T14:30:02.999Z</time></trkpt><trkpt lat="46.69775631214472" lon="4.710374928806844"><ele>222.33333333333331</ele><time>2026-04-15T14:30:03.999Z</time></trkpt><trkpt lat="46.69769800635324" lon="4.710426147969904"><ele>222.16666666666666</ele><time>2026-04-15T14:30:04.999Z</time></trkpt><trkpt lat="46.69764103865614" lon="4.71048202193108"><ele>222.0</ele><time>2026-04-15T14:30:05.999Z</time></trkpt><trkpt lat="46.69758226741193" lon="4.710532026199776"><ele>221.66666666666666</ele><time>2026-04-15T14:30:06.999Z</time></trkpt><trkpt lat="46.697524257430786" lon="4.710587274650672"><ele>221.33333333333331</ele><time>2026-04-15T14:30:07.999Z</time></trkpt><trkpt lat="46.697466184877506" lon="4.710651910334753"><ele>221.0</ele><time>2026-04-15T14:30:08.999Z</time></trkpt><trkpt lat="46.69740654135036" lon="4.710716536611388"><ele>220.66666666666666</ele><time>2026-04-15T14:30:09.999Z</time></trkpt><trkpt lat="46.69731183874699" lon="4.710805939237684"><ele>220.33333333333331</ele><time>2026-04-15T14:30:11.999Z</time></trkpt><trkpt lat="46.69726473516214" lon="4.710943173588888"><ele>220.0</ele><time>2026-04-15T14:30:13.999Z</time></trkpt><trkpt lat="46.6972829082633" lon="4.711034789470362"><ele>219.66666666666666</ele><time>2026-04-15T14:30:14.999Z</time></trkpt><trkpt lat="46.69731167848303" lon="4.711124143285825"><ele>219.33333333333331</ele><time>2026-04-15T14:30:15.999Z</time></trkpt><trkpt lat="46.69735033410329" lon="4.711206648916613"><ele>219.0</ele><time>2026-04-15T14:30:16.999Z</time></trkpt><trkpt lat="46.69738552524263" lon="4.711284505495981"><ele>218.66666666666669</ele><time>2026-04-15T14:30:17.999Z</time></trkpt><trkpt lat="46.697469193925556" lon="4.71142044972604"><ele>218.33333333333334</ele><time>2026-04-15T14:30:19.999Z</time></trkpt><trkpt lat="46.69751672937276" lon="4.711485344266951"><ele>218.0</ele><time>2026-04-15T14:30:20.999Z</time></trkpt><trkpt lat="46.69756803693091" lon="4.711539399963943"><ele>218.00000000000003</ele><time>2026-04-15T14:30:21.999Z</time></trkpt><trkpt lat="46.69762518200823" lon="4.711578886159547"><ele>218.0</ele><time>2026-04-15T14:30:22.999Z</time></trkpt><trkpt lat="46.69768209980003" lon="4.711618320620403"><ele>218.0</ele><time>2026-04-15T14:30:23.999Z</time></trkpt><trkpt lat="46.697790251218706" lon="4.711694368404347"><ele>218.0</ele><time>2026-04-15T14:30:25.999Z</time></trkpt><trkpt lat="46.6978506820752" lon="4.7117332150831395"><ele>218.00000000000003</ele><time>2026-04-15T14:30:26.999Z</time></trkpt><trkpt lat="46.69796817399607" lon="4.711790615271508"><ele>218.0</ele><time>2026-04-15T14:30:28.999Z</time></trkpt><trkpt lat="46.6980789517622" lon="4.711857559655333"><ele>218.16666666666669</ele><time>2026-04-15T14:30:30.999Z</time></trkpt><trkpt lat="46.69814008452613" lon="4.711888460743367"><ele>218.33333333333334</ele><time>2026-04-15T14:30:31.999Z</time></trkpt><trkpt lat="46.698198506978954" lon="4.711923522577065"><ele>218.5</ele><time>2026-04-15T14:30:32.999Z</time></trkpt><trkpt lat="46.69825496205829" lon="4.711968624606048"><ele>218.66666666666669</ele><time>2026-04-15T14:30:33.999Z</time></trkpt><trkpt lat="46.6983049735294" lon="4.712026409817713"><ele>218.83333333333334</ele><time>2026-04-15T14:30:34.999Z</time></trkpt><trkpt lat="46.69837792974457" lon="4.712181855346294"><ele>219.0</ele><time>2026-04-15T14:30:36.999Z</time></trkpt><trkpt lat="46.698394442352644" lon="4.712275380407933"><ele>219.0</ele><time>2026-04-15T14:30:37.999Z</time></trkpt><trkpt lat="46.69840361758628" lon="4.712373647669305"><ele>218.99999999999997</ele><time>2026-04-15T14:30:39Z</time></trkpt><trkpt lat="46.69837762065613" lon="4.712554451228145"><ele>218.99999999999997</ele><time>2026-04-15T14:30:41Z</time></trkpt><trkpt lat="46.69836714047238" lon="4.712652385834637"><ele>219.0</ele><time>2026-04-15T14:30:42Z</time></trkpt><trkpt lat="46.69837768185461" lon="4.7128347216847"><ele>219.0</ele><time>2026-04-15T14:30:44Z</time></trkpt><trkpt lat="46.698384115450594" lon="4.7129342245510575"><ele>218.85714285714286</ele><time>2026-04-15T14:30:45Z</time></trkpt><trkpt lat="46.698390064067326" lon="4.713030224036576"><ele>218.7142857142857</ele><time>2026-04-15T14:30:46Z</time></trkpt><trkpt lat="46.69839320993506" lon="4.71312284050034"><ele>218.57142857142856</ele><time>2026-04-15T14:30:47Z</time></trkpt><trkpt lat="46.69839020246639" lon="4.713225804220901"><ele>218.42857142857144</ele><time>2026-04-15T14:30:48Z</time></trkpt><trkpt lat="46.69838480451874" lon="4.7133303207873265"><ele>218.28571428571428</ele><time>2026-04-15T14:30:49Z</time></trkpt><trkpt lat="46.69837434423917" lon="4.71343264755444"><ele>218.14285714285714</ele><time>2026-04-15T14:30:50Z</time></trkpt><trkpt lat="46.69835527861891" lon="4.713537376330751"><ele>218.0</ele><time>2026-04-15T14:30:51Z</time></trkpt><trkpt lat="46.69833144788065" lon="4.7136373866933265"><ele>218.0</ele><time>2026-04-15T14:30:52Z</time></trkpt><trkpt lat="46.69829807845339" lon="4.713728973192787"><ele>218.0</ele><time>2026-04-15T14:30:53Z</time></trkpt><trkpt lat="46.698263238854594" lon="4.713826111502298"><ele>218.0</ele><time>2026-04-15T14:30:54Z</time></trkpt><trkpt lat="46.69822437661535" lon="4.713910931171243"><ele>218.0</ele><time>2026-04-15T14:30:55Z</time></trkpt><trkpt lat="46.698186383879815" lon="4.713994721200932"><ele>218.0</ele><time>2026-04-15T14:30:56Z</time></trkpt><trkpt lat="46.698151491645106" lon="4.714081554688746"><ele>218.0</ele><time>2026-04-15T14:30:57Z</time></trkpt><trkpt lat="46.698119814291914" lon="4.714171306819367"><ele>218.0</ele><time>2026-04-15T14:30:58Z</time></trkpt><trkpt lat="46.698084797880355" lon="4.714263895620429"><ele>218.0</ele><time>2026-04-15T14:30:59Z</time></trkpt><trkpt lat="46.69804976769683" lon="4.714351606532406"><ele>218.0</ele><time>2026-04-15T14:31:00Z</time></trkpt><trkpt lat="46.69801873744797" lon="4.714443404718792"><ele>218.0</ele><time>2026-04-15T14:31:01Z</time></trkpt><trkpt lat="46.69798686366346" lon="4.714529086747955"><ele>218.0</ele><time>2026-04-15T14:31:02Z</time></trkpt><trkpt lat="46.69795714987717" lon="4.714623740871577"><ele>218.0</ele><time>2026-04-15T14:31:03Z</time></trkpt><trkpt lat="46.69792880968348" lon="4.714709252854544"><ele>218.0</ele><time>2026-04-15T14:31:04Z</time></trkpt><trkpt lat="46.69790692053392" lon="4.714796393149564"><ele>218.0</ele><time>2026-04-15T14:31:05Z</time></trkpt><trkpt lat="46.69788200221071" lon="4.714888026190437"><ele>218.0</ele><time>2026-04-15T14:31:06Z</time></trkpt><trkpt lat="46.69785449887492" lon="4.714977966021801"><ele>218.0</ele><time>2026-04-15T14:31:07Z</time></trkpt><trkpt lat="46.6978331246131" lon="4.7150650052203344"><ele>218.0</ele><time>2026-04-15T14:31:08Z</time></trkpt><trkpt lat="46.69780498907399" lon="4.715158744704968"><ele>218.0</ele><time>2026-04-15T14:31:09Z</time></trkpt><trkpt lat="46.69778440228346" lon="4.715249763840039"><ele>218.0</ele><time>2026-04-15T14:31:10Z</time></trkpt><trkpt lat="46.6977712547777" lon="4.715342421798834"><ele>218.0</ele><time>2026-04-15T14:31:11Z</time></trkpt><trkpt lat="46.69775328172158" lon="4.7154401463644895"><ele>218.0</ele><time>2026-04-15T14:31:12Z</time></trkpt><trkpt lat="46.69773107218719" lon="4.715530790858673"><ele>217.71428571428572</ele><time>2026-04-15T14:31:13Z</time></trkpt><trkpt lat="46.697694722832075" lon="4.715700547244874"><ele>217.42857142857144</ele><time>2026-04-15T14:31:15Z</time></trkpt><trkpt lat="46.697677168924756" lon="4.715789761514846"><ele>217.14285714285714</ele><time>2026-04-15T14:31:16Z</time></trkpt><trkpt lat="46.69765849050158" lon="4.715878582596149"><ele>216.85714285714286</ele><time>2026-04-15T14:31:17Z</time></trkpt><trkpt lat="46.69763649298599" lon="4.715966846434305"><ele>216.57142857142856</ele><time>2026-04-15T14:31:18Z</time></trkpt><trkpt lat="46.69760768481433" lon="4.716052993975885"><ele>216.28571428571428</ele><time>2026-04-15T14:31:19Z</time></trkpt><trkpt lat="46.6975744230169" lon="4.716133408347501"><ele>216.0</ele><time>2026-04-15T14:31:20Z</time></trkpt><trkpt lat="46.69751451823739" lon="4.71628990920704"><ele>216.0</ele><time>2026-04-15T14:31:22Z</time></trkpt><trkpt lat="46.69745391171992" lon="4.716448051527581"><ele>216.0</ele><time>2026-04-15T14:31:24Z</time></trkpt><trkpt lat="46.69742241883995" lon="4.716531975368188"><ele>216.0</ele><time>2026-04-15T14:31:25Z</time></trkpt><trkpt lat="46.69738710981751" lon="4.716614814867893"><ele>216.0</ele><time>2026-04-15T14:31:26Z</time></trkpt><trkpt lat="46.69733425352215" lon="4.716772154164143"><ele>216.0</ele><time>2026-04-15T14:31:28Z</time></trkpt><trkpt lat="46.697297218259784" lon="4.716852037110836"><ele>216.0</ele><time>2026-04-15T14:31:29Z</time></trkpt><trkpt lat="46.6972360826573" lon="4.717016428010092"><ele>216.0</ele><time>2026-04-15T14:31:31Z</time></trkpt><trkpt lat="46.697169221763026" lon="4.7171767295386"><ele>216.0</ele><time>2026-04-15T14:31:33Z</time></trkpt><trkpt lat="46.69713552408802" lon="4.717260369805727"><ele>216.0</ele><time>2026-04-15T14:31:34Z</time></trkpt><trkpt lat="46.697110320759336" lon="4.7173462837867985"><ele>216.0</ele><time>2026-04-15T14:31:35Z</time></trkpt><trkpt lat="46.697078599033624" lon="4.717432817740475"><ele>216.0</ele><time>2026-04-15T14:31:36Z</time></trkpt><trkpt lat="46.697051317283574" lon="4.717517184939916"><ele>216.0</ele><time>2026-04-15T14:31:37Z</time></trkpt><trkpt lat="46.697023325596334" lon="4.717613636596768"><ele>215.83333333333334</ele><time>2026-04-15T14:31:38Z</time></trkpt><trkpt lat="46.696982686642905" lon="4.717774593121627"><ele>215.66666666666669</ele><time>2026-04-15T14:31:40Z</time></trkpt><trkpt lat="46.696969162322134" lon="4.717869042114953"><ele>215.5</ele><time>2026-04-15T14:31:41Z</time></trkpt><trkpt lat="46.696933131331015" lon="4.718039003458451"><ele>215.33333333333334</ele><time>2026-04-15T14:31:43Z</time></trkpt><trkpt lat="46.69691470377704" lon="4.71813723498007"><ele>215.16666666666669</ele><time>2026-04-15T14:31:43.999Z</time></trkpt><trkpt lat="46.69690085743469" lon="4.71823173604767"><ele>215.0</ele><time>2026-04-15T14:31:44.999Z</time></trkpt><trkpt lat="46.69688231901836" lon="4.718326607744076"><ele>214.83333333333334</ele><time>2026-04-15T14:31:45.999Z</time></trkpt><trkpt lat="46.69686579312553" lon="4.718418852009996"><ele>214.66666666666669</ele><time>2026-04-15T14:31:46.999Z</time></trkpt><trkpt lat="46.69684723661711" lon="4.718513627920703"><ele>214.5</ele><time>2026-04-15T14:31:47.999Z</time></trkpt><trkpt lat="46.696812368138254" lon="4.718692097846314"><ele>214.33333333333331</ele><time>2026-04-15T14:31:49.999Z</time></trkpt><trkpt lat="46.69679786757518" lon="4.718786606859006"><ele>214.16666666666666</ele><time>2026-04-15T14:31:50.999Z</time></trkpt><trkpt lat="46.69678067177203" lon="4.71888067099788"><ele>214.0</ele><time>2026-04-15T14:31:51.999Z</time></trkpt><trkpt lat="46.69674766109593" lon="4.719061736461765"><ele>213.99999999999997</ele><time>2026-04-15T14:31:53.999Z</time></trkpt><trkpt lat="46.696714122830876" lon="4.719239747805178"><ele>214.0</ele><time>2026-04-15T14:31:55.999Z</time></trkpt><trkpt lat="46.69669573348508" lon="4.719337824157823"><ele>214.0</ele><time>2026-04-15T14:31:56.999Z</time></trkpt><trkpt lat="46.69668153895745" lon="4.719427537382269"><ele>214.0</ele><time>2026-04-15T14:31:57.999Z</time></trkpt><trkpt lat="46.696665486486644" lon="4.719517640256493"><ele>213.99999999999997</ele><time>2026-04-15T14:31:58.999Z</time></trkpt><trkpt lat="46.69664664770775" lon="4.719612703433571"><ele>214.0</ele><time>2026-04-15T14:31:59.999Z</time></trkpt><trkpt lat="46.69663612155757" lon="4.719714173150299"><ele>214.2</ele><time>2026-04-15T14:32:00.999Z</time></trkpt><trkpt lat="46.696615288351836" lon="4.7198908462294"><ele>214.39999999999998</ele><time>2026-04-15T14:32:02.999Z</time></trkpt><trkpt lat="46.69661118194778" lon="4.719984391200517"><ele>214.6</ele><time>2026-04-15T14:32:03.999Z</time></trkpt><trkpt lat="46.69659411767501" lon="4.720167603887382"><ele>214.8</ele><time>2026-04-15T14:32:05.999Z</time></trkpt><trkpt lat="46.69656668881838" lon="4.720357999489621"><ele>215.0</ele><time>2026-04-15T14:32:07.999Z</time></trkpt><trkpt lat="46.69655756209089" lon="4.720450097724477"><ele>215.00000000000003</ele><time>2026-04-15T14:32:08.999Z</time></trkpt><trkpt lat="46.69654023128223" lon="4.7206263815495815"><ele>215.0</ele><time>2026-04-15T14:32:10.999Z</time></trkpt><trkpt lat="46.6965242948813" lon="4.720807670157391"><ele>215.0</ele><time>2026-04-15T14:32:12.999Z</time></trkpt><trkpt lat="46.69651850442599" lon="4.720901527305054"><ele>215.0</ele><time>2026-04-15T14:32:13.999Z</time></trkpt><trkpt lat="46.6965095799198" lon="4.720999737106772"><ele>215.00000000000003</ele><time>2026-04-15T14:32:14.999Z</time></trkpt><trkpt lat="46.69650384678247" lon="4.721096482548056"><ele>215.0</ele><time>2026-04-15T14:32:15.999Z</time></trkpt><trkpt lat="46.69648235200281" lon="4.72127278913278"><ele>215.00000000000003</ele><time>2026-04-15T14:32:17.999Z</time></trkpt><trkpt lat="46.69647172215673" lon="4.721368271277051"><ele>215.0</ele><time>2026-04-15T14:32:18.999Z</time></trkpt><trkpt lat="46.69646362862821" lon="4.721462921551463"><ele>215.0</ele><time>2026-04-15T14:32:19.999Z</time></trkpt><trkpt lat="46.69645498687258" lon="4.721643614607543"><ele>215.0</ele><time>2026-04-15T14:32:21.999Z</time></trkpt><trkpt lat="46.69645147583602" lon="4.7217396636881865"><ele>215.00000000000003</ele><time>2026-04-15T14:32:22.999Z</time></trkpt><trkpt lat="46.696454721460825" lon="4.721922916457061"><ele>215.0</ele><time>2026-04-15T14:32:24.999Z</time></trkpt><trkpt lat="46.696464620749985" lon="4.722014048151837"><ele>215.00000000000003</ele><time>2026-04-15T14:32:25.999Z</time></trkpt><trkpt lat="46.6964654926848" lon="4.722108222665491"><ele>215.0</ele><time>2026-04-15T14:32:26.999Z</time></trkpt><trkpt lat="46.69645988671387" lon="4.722290243379335"><ele>215.0</ele><time>2026-04-15T14:32:28.999Z</time></trkpt><trkpt lat="46.6964592626786" lon="4.722384871062468"><ele>215.0</ele><time>2026-04-15T14:32:29.999Z</time></trkpt><trkpt lat="46.69644030324087" lon="4.722562138317448"><ele>215.00000000000003</ele><time>2026-04-15T14:32:31.999Z</time></trkpt><trkpt lat="46.69643189412217" lon="4.722655372942778"><ele>215.0</ele><time>2026-04-15T14:32:32.999Z</time></trkpt><trkpt lat="46.696424038707164" lon="4.7228426281420415"><ele>214.50000000000003</ele><time>2026-04-15T14:32:34.999Z</time></trkpt><trkpt lat="46.69641150473605" lon="4.722934941454621"><ele>214.0</ele><time>2026-04-15T14:32:35.999Z</time></trkpt><trkpt lat="46.696396908683745" lon="4.723114902203744"><ele>213.5</ele><time>2026-04-15T14:32:37.999Z</time></trkpt><trkpt lat="46.69638090977765" lon="4.723205287850049"><ele>213.0</ele><time>2026-04-15T14:32:38.999Z</time></trkpt><trkpt lat="46.69636696259379" lon="4.7232961650946255"><ele>212.50000000000003</ele><time>2026-04-15T14:32:39.999Z</time></trkpt><trkpt lat="46.696355737481504" lon="4.7234799130402"><ele>212.0</ele><time>2026-04-15T14:32:41.999Z</time></trkpt><trkpt lat="46.69633393709893" lon="4.723567289382284"><ele>212.00000000000003</ele><time>2026-04-15T14:32:42.999Z</time></trkpt><trkpt lat="46.69632531390525" lon="4.723662873910989"><ele>212.0</ele><time>2026-04-15T14:32:43.999Z</time></trkpt><trkpt lat="46.696306851042806" lon="4.723758332030097"><ele>212.0</ele><time>2026-04-15T14:32:45Z</time></trkpt><trkpt lat="46.696300699089434" lon="4.723850252711775"><ele>212.0</ele><time>2026-04-15T14:32:46Z</time></trkpt><trkpt lat="46.69628208413095" lon="4.72395448664083"><ele>212.00000000000003</ele><time>2026-04-15T14:32:47Z</time></trkpt><trkpt lat="46.69625701972446" lon="4.72413352381971"><ele>212.0</ele><time>2026-04-15T14:32:49Z</time></trkpt><trkpt lat="46.69623624882274" lon="4.724318439232941"><ele>211.66666666666669</ele><time>2026-04-15T14:32:51Z</time></trkpt><trkpt lat="46.69622526336098" lon="4.724411212343229"><ele>211.33333333333334</ele><time>2026-04-15T14:32:52Z</time></trkpt><trkpt lat="46.69621642496936" lon="4.724503584765977"><ele>211.0</ele><time>2026-04-15T14:32:53Z</time></trkpt><trkpt lat="46.6961996968566" lon="4.7246932208741095"><ele>210.66666666666669</ele><time>2026-04-15T14:32:55Z</time></trkpt><trkpt lat="46.69618375313316" lon="4.724782076347135"><ele>210.33333333333334</ele><time>2026-04-15T14:32:56Z</time></trkpt><trkpt lat="46.69617220649596" lon="4.724958379096066"><ele>210.0</ele><time>2026-04-15T14:32:58Z</time></trkpt><trkpt lat="46.69615313156184" lon="4.725055047039856"><ele>210.0</ele><time>2026-04-15T14:32:59Z</time></trkpt><trkpt lat="46.6961376653238" lon="4.725145316547502"><ele>210.0</ele><time>2026-04-15T14:33:00Z</time></trkpt><trkpt lat="46.69611872246915" lon="4.725234791014629"><ele>210.0</ele><time>2026-04-15T14:33:01Z</time></trkpt><trkpt lat="46.69608058291503" lon="4.7254144020454945"><ele>210.0</ele><time>2026-04-15T14:33:03Z</time></trkpt><trkpt lat="46.696061879982615" lon="4.725505058727211"><ele>210.0</ele><time>2026-04-15T14:33:04Z</time></trkpt><trkpt lat="46.696046190909534" lon="4.725598189871212"><ele>210.0</ele><time>2026-04-15T14:33:05Z</time></trkpt><trkpt lat="46.69601471764828" lon="4.725779235671985"><ele>209.83333333333334</ele><time>2026-04-15T14:33:07Z</time></trkpt><trkpt lat="46.695993048245015" lon="4.7258701937574426"><ele>209.66666666666669</ele><time>2026-04-15T14:33:08Z</time></trkpt><trkpt lat="46.6959469126126" lon="4.726035991226542"><ele>209.5</ele><time>2026-04-15T14:33:10Z</time></trkpt><trkpt lat="46.69593170475772" lon="4.726131165502929"><ele>209.33333333333334</ele><time>2026-04-15T14:33:11Z</time></trkpt><trkpt lat="46.69590056405764" lon="4.726305629518031"><ele>209.16666666666669</ele><time>2026-04-15T14:33:13Z</time></trkpt><trkpt lat="46.69588612755791" lon="4.7263959119097"><ele>209.0</ele><time>2026-04-15T14:33:14Z</time></trkpt><trkpt lat="46.695876405719076" lon="4.726488879408081"><ele>209.0</ele><time>2026-04-15T14:33:15Z</time></trkpt><trkpt lat="46.69585413568317" lon="4.726580465134681"><ele>209.0</ele><time>2026-04-15T14:33:16Z</time></trkpt><trkpt lat="46.69584072827962" lon="4.726672029718859"><ele>209.0</ele><time>2026-04-15T14:33:17Z</time></trkpt><trkpt lat="46.69583780955297" lon="4.726768514795503"><ele>209.0</ele><time>2026-04-15T14:33:18Z</time></trkpt><trkpt lat="46.69581749339608" lon="4.726856461779305"><ele>209.0</ele><time>2026-04-15T14:33:19Z</time></trkpt><trkpt lat="46.69579282635417" lon="4.726947897764492"><ele>209.0</ele><time>2026-04-15T14:33:20Z</time></trkpt><trkpt lat="46.69577371590269" lon="4.72703758038713"><ele>209.0</ele><time>2026-04-15T14:33:21Z</time></trkpt><trkpt lat="46.69573273506384" lon="4.727206957137248"><ele>209.00000000000003</ele><time>2026-04-15T14:33:23Z</time></trkpt><trkpt lat="46.69571384018901" lon="4.72729782450096"><ele>209.0</ele><time>2026-04-15T14:33:24Z</time></trkpt><trkpt lat="46.695695327241665" lon="4.727387864810134"><ele>209.0</ele><time>2026-04-15T14:33:25Z</time></trkpt><trkpt lat="46.6956722445174" lon="4.727479731406148"><ele>209.0</ele><time>2026-04-15T14:33:26Z</time></trkpt><trkpt lat="46.69562682873921" lon="4.7276544968409455"><ele>209.00000000000003</ele><time>2026-04-15T14:33:28Z</time></trkpt><trkpt lat="46.69560841718875" lon="4.727744922988641"><ele>209.0</ele><time>2026-04-15T14:33:29Z</time></trkpt><trkpt lat="46.69559431711931" lon="4.727841550444025"><ele>209.0</ele><time>2026-04-15T14:33:30Z</time></trkpt><trkpt lat="46.69555851804428" lon="4.728014762475778"><ele>209.0</ele><time>2026-04-15T14:33:32Z</time></trkpt><trkpt lat="46.695534785101025" lon="4.728102076975566"><ele>209.0</ele><time>2026-04-15T14:33:33Z</time></trkpt><trkpt lat="46.69549588329068" lon="4.728281949368547"><ele>209.0</ele><time>2026-04-15T14:33:35Z</time></trkpt><trkpt lat="46.69547464502322" lon="4.728378470256012"><ele>209.0</ele><time>2026-04-15T14:33:36Z</time></trkpt><trkpt lat="46.69545528372496" lon="4.728470347766894"><ele>208.66666666666669</ele><time>2026-04-15T14:33:37Z</time></trkpt><trkpt lat="46.695414646869175" lon="4.728641106548694"><ele>208.33333333333334</ele><time>2026-04-15T14:33:39Z</time></trkpt><trkpt lat="46.69539512248408" lon="4.7287344738854875"><ele>208.0</ele><time>2026-04-15T14:33:40Z</time></trkpt><trkpt lat="46.695374829825354" lon="4.728826691657125"><ele>207.66666666666669</ele><time>2026-04-15T14:33:41Z</time></trkpt><trkpt lat="46.69534969286221" lon="4.728922348855764"><ele>207.33333333333334</ele><time>2026-04-15T14:33:42Z</time></trkpt><trkpt lat="46.695327487446555" lon="4.729013474436848"><ele>207.0</ele><time>2026-04-15T14:33:43Z</time></trkpt><trkpt lat="46.69530670193014" lon="4.729108024483969"><ele>207.00000000000003</ele><time>2026-04-15T14:33:44Z</time></trkpt><trkpt lat="46.69528451445636" lon="4.72920268905329"><ele>207.0</ele><time>2026-04-15T14:33:45Z</time></trkpt><trkpt lat="46.695263863141115" lon="4.729301458489115"><ele>207.0</ele><time>2026-04-15T14:33:46Z</time></trkpt><trkpt lat="46.69524540556316" lon="4.729393019995775"><ele>207.0</ele><time>2026-04-15T14:33:47Z</time></trkpt><trkpt lat="46.69521978629266" lon="4.729490289181475"><ele>207.0</ele><time>2026-04-15T14:33:48Z</time></trkpt><trkpt lat="46.69519947962338" lon="4.729581234156686"><ele>207.00000000000003</ele><time>2026-04-15T14:33:49Z</time></trkpt><trkpt lat="46.69517958771942" lon="4.729675116613196"><ele>207.0</ele><time>2026-04-15T14:33:50Z</time></trkpt><trkpt lat="46.69515916588923" lon="4.729775900739151"><ele>207.5</ele><time>2026-04-15T14:33:51Z</time></trkpt><trkpt lat="46.69513279574398" lon="4.729871118917169"><ele>208.0</ele><time>2026-04-15T14:33:52Z</time></trkpt><trkpt lat="46.69510700975074" lon="4.729963428467202"><ele>208.5</ele><time>2026-04-15T14:33:53Z</time></trkpt><trkpt lat="46.695086418216846" lon="4.730054219190043"><ele>209.0</ele><time>2026-04-15T14:33:54Z</time></trkpt><trkpt lat="46.69506203118482" lon="4.730149668674732"><ele>209.5</ele><time>2026-04-15T14:33:55Z</time></trkpt><trkpt lat="46.69500821229283" lon="4.730311263960601"><ele>210.0</ele><time>2026-04-15T14:33:57Z</time></trkpt><trkpt lat="46.69497163266651" lon="4.730405349702759"><ele>210.4</ele><time>2026-04-15T14:33:58Z</time></trkpt><trkpt lat="46.69493785226406" lon="4.730490147325494"><ele>210.8</ele><time>2026-04-15T14:33:59Z</time></trkpt><trkpt lat="46.69487342734248" lon="4.730645001044981"><ele>211.2</ele><time>2026-04-15T14:34:00.999Z</time></trkpt><trkpt lat="46.69480957932875" lon="4.730812963353141"><ele>211.6</ele><time>2026-04-15T14:34:02.999Z</time></trkpt><trkpt lat="46.694780531307494" lon="4.730910826297418"><ele>212.0</ele><time>2026-04-15T14:34:03.999Z</time></trkpt><trkpt lat="46.69471381383973" lon="4.731074690514878"><ele>212.50000000000003</ele><time>2026-04-15T14:34:05.999Z</time></trkpt><trkpt lat="46.694679314164325" lon="4.7311535969149245"><ele>213.0</ele><time>2026-04-15T14:34:06.999Z</time></trkpt><trkpt lat="46.69464720817827" lon="4.731241231987456"><ele>213.5</ele><time>2026-04-15T14:34:07.999Z</time></trkpt><trkpt lat="46.69462073306529" lon="4.731330564904598"><ele>214.0</ele><time>2026-04-15T14:34:08.999Z</time></trkpt><trkpt lat="46.694565283113754" lon="4.731490479738388"><ele>214.50000000000003</ele><time>2026-04-15T14:34:10.999Z</time></trkpt><trkpt lat="46.69453083961422" lon="4.7315736978920935"><ele>215.0</ele><time>2026-04-15T14:34:11.999Z</time></trkpt><trkpt lat="46.69449443761547" lon="4.73165460076677"><ele>215.0</ele><time>2026-04-15T14:34:12.999Z</time></trkpt><trkpt lat="46.69446656550587" lon="4.731738643027064"><ele>215.0</ele><time>2026-04-15T14:34:13.999Z</time></trkpt><trkpt lat="46.694440001564395" lon="4.731825799002602"><ele>215.0</ele><time>2026-04-15T14:34:14.999Z</time></trkpt><trkpt lat="46.6944110093629" lon="4.731915368901098"><ele>215.0</ele><time>2026-04-15T14:34:15.999Z</time></trkpt><trkpt lat="46.69437814232837" lon="4.7320001164946"><ele>215.0</ele><time>2026-04-15T14:34:16.999Z</time></trkpt><trkpt lat="46.694347570381964" lon="4.732085448366937"><ele>215.0</ele><time>2026-04-15T14:34:17.999Z</time></trkpt><trkpt lat="46.69431629174293" lon="4.732170445277438"><ele>215.0</ele><time>2026-04-15T14:34:18.999Z</time></trkpt><trkpt lat="46.694288818593705" lon="4.732258061074477"><ele>213.57142857142856</ele><time>2026-04-15T14:34:19.999Z</time></trkpt><trkpt lat="46.69425654504029" lon="4.732341507427783"><ele>212.14285714285717</ele><time>2026-04-15T14:34:20.999Z</time></trkpt><trkpt lat="46.694227616201" lon="4.732426935033043"><ele>210.71428571428572</ele><time>2026-04-15T14:34:21.999Z</time></trkpt><trkpt lat="46.694192296669115" lon="4.732510122847782"><ele>209.28571428571428</ele><time>2026-04-15T14:34:22.999Z</time></trkpt><trkpt lat="46.69416694722531" lon="4.732602770344577"><ele>207.85714285714283</ele><time>2026-04-15T14:34:23.999Z</time></trkpt><trkpt lat="46.69413994832293" lon="4.732685954744036"><ele>206.42857142857144</ele><time>2026-04-15T14:34:24.999Z</time></trkpt><trkpt lat="46.6941035583833" lon="4.732771865048914"><ele>205.0</ele><time>2026-04-15T14:34:25.999Z</time></trkpt><trkpt lat="46.69407300975676" lon="4.7328642276895145"><ele>204.83333333333331</ele><time>2026-04-15T14:34:26.999Z</time></trkpt><trkpt lat="46.694042889169936" lon="4.732946192232221"><ele>204.66666666666666</ele><time>2026-04-15T14:34:27.999Z</time></trkpt><trkpt lat="46.694014127869934" lon="4.73303459204673"><ele>204.5</ele><time>2026-04-15T14:34:28.999Z</time></trkpt><trkpt lat="46.69398871749508" lon="4.7331201843828055"><ele>204.33333333333331</ele><time>2026-04-15T14:34:29.999Z</time></trkpt><trkpt lat="46.693959460685534" lon="4.733206294354979"><ele>204.16666666666666</ele><time>2026-04-15T14:34:30.999Z</time></trkpt><trkpt lat="46.69392980583904" lon="4.73328877982566"><ele>204.0</ele><time>2026-04-15T14:34:31.999Z</time></trkpt><trkpt lat="46.69386495146337" lon="4.733448082591421"><ele>204.0</ele><time>2026-04-15T14:34:33.999Z</time></trkpt><trkpt lat="46.69383011611392" lon="4.733528491461329"><ele>204.0</ele><time>2026-04-15T14:34:34.999Z</time></trkpt><trkpt lat="46.6937682574284" lon="4.73368411414583"><ele>204.0</ele><time>2026-04-15T14:34:36.999Z</time></trkpt><trkpt lat="46.69372906408206" lon="4.733764556155253"><ele>204.0</ele><time>2026-04-15T14:34:37.999Z</time></trkpt><trkpt lat="46.69369300960298" lon="4.733844985942665"><ele>204.0</ele><time>2026-04-15T14:34:38.999Z</time></trkpt><trkpt lat="46.693663416788624" lon="4.733926234648816"><ele>204.0</ele><time>2026-04-15T14:34:39.999Z</time></trkpt><trkpt lat="46.69363065163702" lon="4.734014569302369"><ele>204.0</ele><time>2026-04-15T14:34:40.999Z</time></trkpt><trkpt lat="46.69358826221716" lon="4.734086187758934"><ele>204.0</ele><time>2026-04-15T14:34:41.999Z</time></trkpt><trkpt lat="46.6935497741975" lon="4.7341638892926285"><ele>204.0</ele><time>2026-04-15T14:34:42.999Z</time></trkpt><trkpt lat="46.69347698724966" lon="4.734307113797206"><ele>204.0</ele><time>2026-04-15T14:34:44.999Z</time></trkpt><trkpt lat="46.693432621548865" lon="4.734379257893516"><ele>204.0</ele><time>2026-04-15T14:34:45.999Z</time></trkpt><trkpt lat="46.69338883605849" lon="4.734455106387793"><ele>204.0</ele><time>2026-04-15T14:34:46.999Z</time></trkpt><trkpt lat="46.693342909723405" lon="4.734525449374601"><ele>204.0</ele><time>2026-04-15T14:34:47.999Z</time></trkpt><trkpt lat="46.69329284107204" lon="4.734601300740729"><ele>204.0</ele><time>2026-04-15T14:34:48.999Z</time></trkpt><trkpt lat="46.6932474985477" lon="4.734672720924882"><ele>204.0</ele><time>2026-04-15T14:34:49.999Z</time></trkpt><trkpt lat="46.69320243274308" lon="4.734758827806642"><ele>204.0</ele><time>2026-04-15T14:34:51Z</time></trkpt><trkpt lat="46.69315802821429" lon="4.734831924000653"><ele>204.0</ele><time>2026-04-15T14:34:52Z</time></trkpt><trkpt lat="46.69311013243843" lon="4.734905728942596"><ele>204.0</ele><time>2026-04-15T14:34:53Z</time></trkpt><trkpt lat="46.693063484409805" lon="4.734985573732304"><ele>204.0</ele><time>2026-04-15T14:34:54Z</time></trkpt><trkpt lat="46.69300871002027" lon="4.735068895332246"><ele>204.0</ele><time>2026-04-15T14:34:55Z</time></trkpt><trkpt lat="46.69295270439435" lon="4.735151271977634"><ele>204.0</ele><time>2026-04-15T14:34:56Z</time></trkpt><trkpt lat="46.69289750919221" lon="4.73523724399255"><ele>204.0</ele><time>2026-04-15T14:34:57Z</time></trkpt><trkpt lat="46.69283941640914" lon="4.73532841082152"><ele>204.0</ele><time>2026-04-15T14:34:58Z</time></trkpt><trkpt lat="46.692783971832" lon="4.735424436449404"><ele>204.0</ele><time>2026-04-15T14:34:59Z</time></trkpt><trkpt lat="46.69271727683299" lon="4.735530181523159"><ele>204.0</ele><time>2026-04-15T14:35:00Z</time></trkpt><trkpt lat="46.69265991184514" lon="4.735610170820051"><ele>202.6</ele><time>2026-04-15T14:35:01Z</time></trkpt><trkpt lat="46.692597929174276" lon="4.735737681301548"><ele>201.2</ele><time>2026-04-15T14:35:02Z</time></trkpt><trkpt lat="46.69254834607136" lon="4.735861082410113"><ele>199.79999999999998</ele><time>2026-04-15T14:35:03Z</time></trkpt><trkpt lat="46.692499527456434" lon="4.73597936583187"><ele>198.39999999999998</ele><time>2026-04-15T14:35:04Z</time></trkpt><trkpt lat="46.6924561590386" lon="4.736107156322159"><ele>197.0</ele><time>2026-04-15T14:35:05Z</time></trkpt><trkpt lat="46.692425782420145" lon="4.736228325142445"><ele>196.5</ele><time>2026-04-15T14:35:06Z</time></trkpt><trkpt lat="46.69237205934538" lon="4.736357852974627"><ele>196.0</ele><time>2026-04-15T14:35:07Z</time></trkpt><trkpt lat="46.692327240630036" lon="4.736474898212179"><ele>195.5</ele><time>2026-04-15T14:35:08Z</time></trkpt><trkpt lat="46.69225248508077" lon="4.736712792558882"><ele>195.0</ele><time>2026-04-15T14:35:10Z</time></trkpt><trkpt lat="46.692219530873025" lon="4.736829064033761"><ele>195.0</ele><time>2026-04-15T14:35:11Z</time></trkpt><trkpt lat="46.69218781001315" lon="4.736945969385024"><ele>195.0</ele><time>2026-04-15T14:35:12Z</time></trkpt><trkpt lat="46.692151765475394" lon="4.73705733443997"><ele>195.0</ele><time>2026-04-15T14:35:13Z</time></trkpt><trkpt lat="46.69213197337895" lon="4.737144799745841"><ele>195.0</ele><time>2026-04-15T14:35:14Z</time></trkpt><trkpt lat="46.69208978031933" lon="4.7372680686704935"><ele>195.0</ele><time>2026-04-15T14:35:16Z</time></trkpt><trkpt lat="46.69199937631024" lon="4.737350818586282"><ele>195.0</ele><time>2026-04-15T14:35:18Z</time></trkpt><trkpt lat="46.69193397873669" lon="4.737374660814553"><ele>195.8</ele><time>2026-04-15T14:35:20Z</time></trkpt><trkpt lat="46.69183682383687" lon="4.7373542847206895"><ele>196.6</ele><time>2026-04-15T14:35:23Z</time></trkpt><trkpt lat="46.69174857819465" lon="4.737353842427151"><ele>197.39999999999998</ele><time>2026-04-15T14:35:25Z</time></trkpt><trkpt lat="46.69167570993499" lon="4.73732606205827"><ele>198.2</ele><time>2026-04-15T14:35:27Z</time></trkpt><trkpt lat="46.69156762800713" lon="4.737245650350011"><ele>199.0</ele><time>2026-04-15T14:35:29Z</time></trkpt><trkpt lat="46.69145765951237" lon="4.737152546821742"><ele>199.0</ele><time>2026-04-15T14:35:31Z</time></trkpt><trkpt lat="46.69138782258515" lon="4.7371098507293405"><ele>199.0</ele><time>2026-04-15T14:35:32Z</time></trkpt><trkpt lat="46.69128314984888" lon="4.73705249527449"><ele>199.0</ele><time>2026-04-15T14:35:34Z</time></trkpt><trkpt lat="46.69121113743102" lon="4.737030805177315"><ele>199.0</ele><time>2026-04-15T14:35:35Z</time></trkpt><trkpt lat="46.69111498309837" lon="4.736950304803147"><ele>199.0</ele><time>2026-04-15T14:35:37Z</time></trkpt><trkpt lat="46.690996699517314" lon="4.736928903177036"><ele>199.2</ele><time>2026-04-15T14:35:39Z</time></trkpt><trkpt lat="46.6909251026389" lon="4.736926167036523"><ele>199.39999999999998</ele><time>2026-04-15T14:35:40Z</time></trkpt><trkpt lat="46.69086067415626" lon="4.736903097640774"><ele>199.6</ele><time>2026-04-15T14:35:41Z</time></trkpt><trkpt lat="46.69073467470093" lon="4.736852887431596"><ele>199.8</ele><time>2026-04-15T14:35:43Z</time></trkpt><trkpt lat="46.69061340566385" lon="4.736839112085568"><ele>200.0</ele><time>2026-04-15T14:35:45Z</time></trkpt><trkpt lat="46.69054770637281" lon="4.736827576790999"><ele>200.0</ele><time>2026-04-15T14:35:46Z</time></trkpt><trkpt lat="46.69042232920028" lon="4.736812781655779"><ele>200.0</ele><time>2026-04-15T14:35:48Z</time></trkpt><trkpt lat="46.69031939930981" lon="4.736789740611513"><ele>200.0</ele><time>2026-04-15T14:35:50Z</time></trkpt><trkpt lat="46.6902012923256" lon="4.736789775449979"><ele>200.0</ele><time>2026-04-15T14:35:52Z</time></trkpt><trkpt lat="46.6900878626676" lon="4.736802327663949"><ele>200.6</ele><time>2026-04-15T14:35:54Z</time></trkpt><trkpt lat="46.68997175741925" lon="4.736833263240003"><ele>201.2</ele><time>2026-04-15T14:35:56Z</time></trkpt><trkpt lat="46.6898745531258" lon="4.736889264572531"><ele>201.8</ele><time>2026-04-15T14:35:58Z</time></trkpt><trkpt lat="46.689777481984805" lon="4.736935532643909"><ele>202.4</ele><time>2026-04-15T14:36:00Z</time></trkpt><trkpt lat="46.689687089358664" lon="4.737000355076979"><ele>203.0</ele><time>2026-04-15T14:36:02Z</time></trkpt><trkpt lat="46.68959895020894" lon="4.737066197797339"><ele>203.4</ele><time>2026-04-15T14:36:04Z</time></trkpt><trkpt lat="46.689506259386555" lon="4.737140222726662"><ele>203.8</ele><time>2026-04-15T14:36:06Z</time></trkpt><trkpt lat="46.68940632748226" lon="4.737215737085204"><ele>204.2</ele><time>2026-04-15T14:36:08Z</time></trkpt><trkpt lat="46.68932455448848" lon="4.737307049420668"><ele>204.6</ele><time>2026-04-15T14:36:10Z</time></trkpt><trkpt lat="46.68925256094771" lon="4.737399130258059"><ele>205.0</ele><time>2026-04-15T14:36:11.999Z</time></trkpt><trkpt lat="46.68918457259366" lon="4.7374644593962145"><ele>205.6</ele><time>2026-04-15T14:36:13.999Z</time></trkpt><trkpt lat="46.689116872597054" lon="4.737505338735107"><ele>206.2</ele><time>2026-04-15T14:36:15.999Z</time></trkpt><trkpt lat="46.689062380228386" lon="4.73759637908559"><ele>206.8</ele><time>2026-04-15T14:36:17.999Z</time></trkpt><trkpt lat="46.689005984142106" lon="4.737698371575565"><ele>207.4</ele><time>2026-04-15T14:36:19.999Z</time></trkpt><trkpt lat="46.6889392743307" lon="4.737820267690681"><ele>208.0</ele><time>2026-04-15T14:36:21.999Z</time></trkpt><trkpt lat="46.68886197529349" lon="4.737946252647184"><ele>208.5</ele><time>2026-04-15T14:36:23.999Z</time></trkpt><trkpt lat="46.6887832378756" lon="4.738068076151025"><ele>209.0</ele><time>2026-04-15T14:36:25.999Z</time></trkpt><trkpt lat="46.688714005072384" lon="4.7381871848575745"><ele>209.5</ele><time>2026-04-15T14:36:27.999Z</time></trkpt><trkpt lat="46.688641193791014" lon="4.73830004911077"><ele>210.0</ele><time>2026-04-15T14:36:29.999Z</time></trkpt><trkpt lat="46.688556024126925" lon="4.738427700370224"><ele>210.2</ele><time>2026-04-15T14:36:31.999Z</time></trkpt><trkpt lat="46.68850792263344" lon="4.738499844212427"><ele>210.4</ele><time>2026-04-15T14:36:32.999Z</time></trkpt><trkpt lat="46.68842814421162" lon="4.738615239867156"><ele>210.60000000000002</ele><time>2026-04-15T14:36:34.999Z</time></trkpt><trkpt lat="46.68835690790126" lon="4.738721299162513"><ele>210.8</ele><time>2026-04-15T14:36:36.999Z</time></trkpt><trkpt lat="46.688287354136364" lon="4.738867564373982"><ele>211.0</ele><time>2026-04-15T14:36:38.999Z</time></trkpt><trkpt lat="46.68820281311982" lon="4.739003834095065"><ele>211.60000000000002</ele><time>2026-04-15T14:36:40.999Z</time></trkpt><trkpt lat="46.688155265082976" lon="4.739072229205265"><ele>212.2</ele><time>2026-04-15T14:36:41.999Z</time></trkpt><trkpt lat="46.68806258427615" lon="4.739210032422175"><ele>212.79999999999998</ele><time>2026-04-15T14:36:43.999Z</time></trkpt><trkpt lat="46.68799095391196" lon="4.739317230437679"><ele>213.39999999999998</ele><time>2026-04-15T14:36:45.999Z</time></trkpt><trkpt lat="46.68792070701938" lon="4.739414871922499"><ele>214.0</ele><time>2026-04-15T14:36:47.999Z</time></trkpt><trkpt lat="46.687850972379124" lon="4.739512790233087"><ele>214.79999999999998</ele><time>2026-04-15T14:36:49.999Z</time></trkpt><trkpt lat="46.6877887521856" lon="4.739616209886208"><ele>215.59999999999997</ele><time>2026-04-15T14:36:51.999Z</time></trkpt><trkpt lat="46.68774924572452" lon="4.739732320053201"><ele>216.4</ele><time>2026-04-15T14:36:53.999Z</time></trkpt><trkpt lat="46.687691302581165" lon="4.739819701028506"><ele>217.2</ele><time>2026-04-15T14:36:55.999Z</time></trkpt><trkpt lat="46.68763170473223" lon="4.739914984005888"><ele>218.0</ele><time>2026-04-15T14:36:58Z</time></trkpt><trkpt lat="46.68755056635159" lon="4.740017475282472"><ele>218.0</ele><time>2026-04-15T14:37:00Z</time></trkpt><trkpt lat="46.68747273880787" lon="4.740131228190581"><ele>218.0</ele><time>2026-04-15T14:37:02Z</time></trkpt><trkpt lat="46.687407465691244" lon="4.740248161241982"><ele>218.0</ele><time>2026-04-15T14:37:04Z</time></trkpt><trkpt lat="46.68734011402849" lon="4.740364583116373"><ele>218.0</ele><time>2026-04-15T14:37:06Z</time></trkpt><trkpt lat="46.68726299390334" lon="4.740470312203612"><ele>218.0</ele><time>2026-04-15T14:37:08Z</time></trkpt><trkpt lat="46.68719397912733" lon="4.740574219699629"><ele>218.4</ele><time>2026-04-15T14:37:10Z</time></trkpt><trkpt lat="46.68712408080931" lon="4.74062937494678"><ele>218.8</ele><time>2026-04-15T14:37:11Z</time></trkpt><trkpt lat="46.68708961428739" lon="4.740751170130729"><ele>219.2</ele><time>2026-04-15T14:37:13Z</time></trkpt><trkpt lat="46.68701581474754" lon="4.740869993201123"><ele>219.6</ele><time>2026-04-15T14:37:15Z</time></trkpt><trkpt lat="46.686942093643" lon="4.74097908495713"><ele>220.0</ele><time>2026-04-15T14:37:17Z</time></trkpt><trkpt lat="46.68686253725913" lon="4.741088258784955"><ele>220.5</ele><time>2026-04-15T14:37:19Z</time></trkpt><trkpt lat="46.68678472291408" lon="4.741212381783374"><ele>221.0</ele><time>2026-04-15T14:37:21Z</time></trkpt><trkpt lat="46.68671088998011" lon="4.741345418660187"><ele>221.5</ele><time>2026-04-15T14:37:23Z</time></trkpt><trkpt lat="46.686636137645145" lon="4.741467107338712"><ele>222.0</ele><time>2026-04-15T14:37:25Z</time></trkpt><trkpt lat="46.686565726664675" lon="4.741585793349597"><ele>222.0</ele><time>2026-04-15T14:37:27Z</time></trkpt><trkpt lat="46.686505067348406" lon="4.741676603115027"><ele>222.0</ele><time>2026-04-15T14:37:29Z</time></trkpt><trkpt lat="46.68643412571949" lon="4.7418024084799955"><ele>222.0</ele><time>2026-04-15T14:37:31Z</time></trkpt><trkpt lat="46.686374494204486" lon="4.741901468712701"><ele>222.0</ele><time>2026-04-15T14:37:33Z</time></trkpt><trkpt lat="46.68632665196092" lon="4.741986251298314"><ele>222.0</ele><time>2026-04-15T14:37:35Z</time></trkpt><trkpt lat="46.686270302620244" lon="4.742077090463105"><ele>222.0</ele><time>2026-04-15T14:37:37Z</time></trkpt><trkpt lat="46.686196734842184" lon="4.742188675198897"><ele>222.0</ele><time>2026-04-15T14:37:39Z</time></trkpt><trkpt lat="46.686125226285014" lon="4.742287081301976"><ele>222.0</ele><time>2026-04-15T14:37:41Z</time></trkpt><trkpt lat="46.68604544341255" lon="4.742425226163964"><ele>222.0</ele><time>2026-04-15T14:37:43Z</time></trkpt><trkpt lat="46.68597848674626" lon="4.742533686772362"><ele>222.0</ele><time>2026-04-15T14:37:45Z</time></trkpt><trkpt lat="46.68591299329298" lon="4.742650309540766"><ele>222.0</ele><time>2026-04-15T14:37:47Z</time></trkpt><trkpt lat="46.68586304422" lon="4.742758054664711"><ele>222.0</ele><time>2026-04-15T14:37:49Z</time></trkpt><trkpt lat="46.685789239305876" lon="4.742852064592045"><ele>222.0</ele><time>2026-04-15T14:37:51Z</time></trkpt><trkpt lat="46.68572327174725" lon="4.742950447630831"><ele>222.0</ele><time>2026-04-15T14:37:53Z</time></trkpt><trkpt lat="46.685676401430776" lon="4.743026419253751"><ele>222.0</ele><time>2026-04-15T14:37:55Z</time></trkpt><trkpt lat="46.68562244042195" lon="4.743107256498792"><ele>222.0</ele><time>2026-04-15T14:37:57Z</time></trkpt><trkpt lat="46.685561373133346" lon="4.743185179550765"><ele>222.0</ele><time>2026-04-15T14:37:59Z</time></trkpt><trkpt lat="46.6854888719451" lon="4.743269959971588"><ele>222.0</ele><time>2026-04-15T14:38:01Z</time></trkpt><trkpt lat="46.68543047654533" lon="4.743378229542889"><ele>222.0</ele><time>2026-04-15T14:38:03Z</time></trkpt><trkpt lat="46.68535792164362" lon="4.743491273187347"><ele>222.0</ele><time>2026-04-15T14:38:05Z</time></trkpt><trkpt lat="46.685282410163666" lon="4.743622054675238"><ele>222.0</ele><time>2026-04-15T14:38:07Z</time></trkpt><trkpt lat="46.68521098043111" lon="4.743731457983892"><ele>222.0</ele><time>2026-04-15T14:38:08.999Z</time></trkpt><trkpt lat="46.68514873808024" lon="4.743816881608339"><ele>222.33333333333334</ele><time>2026-04-15T14:38:10.999Z</time></trkpt><trkpt lat="46.68509401086843" lon="4.74392598559151"><ele>222.66666666666669</ele><time>2026-04-15T14:38:12.999Z</time></trkpt><trkpt lat="46.685033786730116" lon="4.74402622281089"><ele>223.0</ele><time>2026-04-15T14:38:14.999Z</time></trkpt><trkpt lat="46.684953078329755" lon="4.744147990230603"><ele>223.33333333333334</ele><time>2026-04-15T14:38:16.999Z</time></trkpt><trkpt lat="46.68490817953172" lon="4.744215564946845"><ele>223.66666666666669</ele><time>2026-04-15T14:38:17.999Z</time></trkpt><trkpt lat="46.68486585403729" lon="4.744284142935336"><ele>224.0</ele><time>2026-04-15T14:38:18.999Z</time></trkpt><trkpt lat="46.684826105491176" lon="4.744363509755878"><ele>224.39999999999998</ele><time>2026-04-15T14:38:19.999Z</time></trkpt><trkpt lat="46.684779088995604" lon="4.744435098804655"><ele>224.79999999999998</ele><time>2026-04-15T14:38:20.999Z</time></trkpt><trkpt lat="46.684728977283655" lon="4.744509482815466"><ele>225.20000000000002</ele><time>2026-04-15T14:38:21.999Z</time></trkpt><trkpt lat="46.68464561814017" lon="4.744621605186882"><ele>225.60000000000002</ele><time>2026-04-15T14:38:23.999Z</time></trkpt><trkpt lat="46.68458365802378" lon="4.744724165369552"><ele>226.0</ele><time>2026-04-15T14:38:25.999Z</time></trkpt><trkpt lat="46.68451299625647" lon="4.7448437864418125"><ele>226.0</ele><time>2026-04-15T14:38:27.999Z</time></trkpt><trkpt lat="46.684438449350715" lon="4.744958161881846"><ele>226.00000000000003</ele><time>2026-04-15T14:38:29.999Z</time></trkpt><trkpt lat="46.68435880342371" lon="4.745075690637407"><ele>226.00000000000003</ele><time>2026-04-15T14:38:31.999Z</time></trkpt><trkpt lat="46.68429278520477" lon="4.745189230639854"><ele>226.0</ele><time>2026-04-15T14:38:33.999Z</time></trkpt><trkpt lat="46.684225488337894" lon="4.745288361592493"><ele>226.0</ele><time>2026-04-15T14:38:35.999Z</time></trkpt><trkpt lat="46.684143336532976" lon="4.745419924089615"><ele>225.60000000000002</ele><time>2026-04-15T14:38:37.999Z</time></trkpt><trkpt lat="46.684062544497486" lon="4.745533706255313"><ele>225.20000000000002</ele><time>2026-04-15T14:38:39.999Z</time></trkpt><trkpt lat="46.68400362970174" lon="4.745640242573084"><ele>224.79999999999998</ele><time>2026-04-15T14:38:41.999Z</time></trkpt><trkpt lat="46.68394630857795" lon="4.745724799860333"><ele>224.39999999999998</ele><time>2026-04-15T14:38:43.999Z</time></trkpt><trkpt lat="46.683893983529686" lon="4.745832879717616"><ele>224.0</ele><time>2026-04-15T14:38:45.999Z</time></trkpt><trkpt lat="46.68381927398665" lon="4.745936512617019"><ele>223.79999999999998</ele><time>2026-04-15T14:38:47.999Z</time></trkpt><trkpt lat="46.68374366570518" lon="4.746045995793389"><ele>223.59999999999997</ele><time>2026-04-15T14:38:49.999Z</time></trkpt><trkpt lat="46.68366331834371" lon="4.746161041561468"><ele>223.4</ele><time>2026-04-15T14:38:51.999Z</time></trkpt><trkpt lat="46.683583895261606" lon="4.74629133046139"><ele>223.2</ele><time>2026-04-15T14:38:53.999Z</time></trkpt><trkpt lat="46.68350280810447" lon="4.746381504721612"><ele>223.0</ele><time>2026-04-15T14:38:55.999Z</time></trkpt><trkpt lat="46.68342410251477" lon="4.746525571545652"><ele>223.0</ele><time>2026-04-15T14:38:57.999Z</time></trkpt><trkpt lat="46.68335037223636" lon="4.746660008655288"><ele>223.0</ele><time>2026-04-15T14:38:59.999Z</time></trkpt><trkpt lat="46.68330367314246" lon="4.746725731764194"><ele>223.0</ele><time>2026-04-15T14:39:00.999Z</time></trkpt><trkpt lat="46.6832245531125" lon="4.746868324029325"><ele>223.0</ele><time>2026-04-15T14:39:03Z</time></trkpt><trkpt lat="46.683184311002734" lon="4.747034035693868"><ele>223.0</ele><time>2026-04-15T14:39:05Z</time></trkpt><trkpt lat="46.683160723475986" lon="4.747207787091924"><ele>223.0</ele><time>2026-04-15T14:39:07Z</time></trkpt><trkpt lat="46.68314009095893" lon="4.747372189351764"><ele>223.0</ele><time>2026-04-15T14:39:09Z</time></trkpt><trkpt lat="46.68311384977715" lon="4.747532006669998"><ele>223.0</ele><time>2026-04-15T14:39:11Z</time></trkpt><trkpt lat="46.683091520588626" lon="4.747703130958241"><ele>223.0</ele><time>2026-04-15T14:39:13Z</time></trkpt><trkpt lat="46.683069909050545" lon="4.747868123642365"><ele>223.2</ele><time>2026-04-15T14:39:15Z</time></trkpt><trkpt lat="46.68304656059906" lon="4.748037246977467"><ele>223.4</ele><time>2026-04-15T14:39:17Z</time></trkpt><trkpt lat="46.68301795113726" lon="4.748203402829437"><ele>223.59999999999997</ele><time>2026-04-15T14:39:19Z</time></trkpt><trkpt lat="46.68301047227139" lon="4.748295186336027"><ele>223.79999999999998</ele><time>2026-04-15T14:39:20Z</time></trkpt><trkpt lat="46.68299020763563" lon="4.7484706426913705"><ele>224.0</ele><time>2026-04-15T14:39:22Z</time></trkpt><trkpt lat="46.682980857776684" lon="4.748646040219491"><ele>224.39999999999998</ele><time>2026-04-15T14:39:24Z</time></trkpt><trkpt lat="46.682944820600135" lon="4.748803231999326"><ele>224.79999999999998</ele><time>2026-04-15T14:39:26Z</time></trkpt><trkpt lat="46.68293629472304" lon="4.748958569802773"><ele>225.20000000000002</ele><time>2026-04-15T14:39:28Z</time></trkpt><trkpt lat="46.68292025874125" lon="4.749049120338569"><ele>225.60000000000002</ele><time>2026-04-15T14:39:29Z</time></trkpt><trkpt lat="46.68290710843025" lon="4.7491417373774425"><ele>226.0</ele><time>2026-04-15T14:39:30Z</time></trkpt><trkpt lat="46.68287547947417" lon="4.749285618063725"><ele>226.60000000000002</ele><time>2026-04-15T14:39:32Z</time></trkpt><trkpt lat="46.6828625710327" lon="4.749449503170752"><ele>227.20000000000002</ele><time>2026-04-15T14:39:34Z</time></trkpt><trkpt lat="46.68285108290415" lon="4.749540319308558"><ele>227.79999999999998</ele><time>2026-04-15T14:39:35Z</time></trkpt><trkpt lat="46.682823874681254" lon="4.749688894680532"><ele>228.39999999999998</ele><time>2026-04-15T14:39:37Z</time></trkpt><trkpt lat="46.68279049515046" lon="4.749848359962896"><ele>229.0</ele><time>2026-04-15T14:39:39Z</time></trkpt><trkpt lat="46.6827701100536" lon="4.750004897805502"><ele>228.75</ele><time>2026-04-15T14:39:41Z</time></trkpt><trkpt lat="46.68274264766226" lon="4.750167932664736"><ele>228.5</ele><time>2026-04-15T14:39:43Z</time></trkpt><trkpt lat="46.682713280941705" lon="4.750341627786878"><ele>228.25</ele><time>2026-04-15T14:39:45Z</time></trkpt><trkpt lat="46.682688006566636" lon="4.7504988766929"><ele>228.0</ele><time>2026-04-15T14:39:47Z</time></trkpt><trkpt lat="46.68266276083971" lon="4.750678110292732"><ele>228.0</ele><time>2026-04-15T14:39:49Z</time></trkpt><trkpt lat="46.68264845227311" lon="4.750767996797006"><ele>228.0</ele><time>2026-04-15T14:39:50Z</time></trkpt><trkpt lat="46.68262400296266" lon="4.75093028154076"><ele>228.0</ele><time>2026-04-15T14:39:52Z</time></trkpt><trkpt lat="46.68261694906315" lon="4.7510316708694456"><ele>228.0</ele><time>2026-04-15T14:39:53Z</time></trkpt><trkpt lat="46.6825984471307" lon="4.751194297402684"><ele>228.0</ele><time>2026-04-15T14:39:55Z</time></trkpt><trkpt lat="46.68256691403764" lon="4.751356780449048"><ele>228.0</ele><time>2026-04-15T14:39:57Z</time></trkpt><trkpt lat="46.682556375779875" lon="4.751501073143311"><ele>228.0</ele><time>2026-04-15T14:39:59Z</time></trkpt><trkpt lat="46.682546146903555" lon="4.751598241771523"><ele>228.0</ele><time>2026-04-15T14:40:00Z</time></trkpt><trkpt lat="46.68251871967303" lon="4.7517602794393285"><ele>228.0</ele><time>2026-04-15T14:40:02Z</time></trkpt><trkpt lat="46.68249589593222" lon="4.751915291040351"><ele>228.0</ele><time>2026-04-15T14:40:04Z</time></trkpt><trkpt lat="46.68247162462581" lon="4.752056054913054"><ele>228.0</ele><time>2026-04-15T14:40:06Z</time></trkpt><trkpt lat="46.682458638335035" lon="4.752202761978644"><ele>228.0</ele><time>2026-04-15T14:40:08Z</time></trkpt><trkpt lat="46.682444214366484" lon="4.752328093741249"><ele>228.0</ele><time>2026-04-15T14:40:10Z</time></trkpt><trkpt lat="46.68242232489257" lon="4.752416877706135"><ele>228.0</ele><time>2026-04-15T14:40:13Z</time></trkpt><trkpt lat="46.68240763747238" lon="4.752537649753081"><ele>228.0</ele><time>2026-04-15T14:40:21.999Z</time></trkpt><trkpt lat="46.68238933201722" lon="4.752658176655637"><ele>228.0</ele><time>2026-04-15T14:40:23.999Z</time></trkpt><trkpt lat="46.682358242642835" lon="4.752802828113405"><ele>227.8</ele><time>2026-04-15T14:40:25.999Z</time></trkpt><trkpt lat="46.68233021209494" lon="4.752968669106165"><ele>227.60000000000002</ele><time>2026-04-15T14:40:27.999Z</time></trkpt><trkpt lat="46.68229156657135" lon="4.753131110899655"><ele>227.39999999999998</ele><time>2026-04-15T14:40:29.999Z</time></trkpt><trkpt lat="46.68229146763463" lon="4.753239904701417"><ele>227.2</ele><time>2026-04-15T14:40:30.999Z</time></trkpt><trkpt lat="46.68227740933849" lon="4.753428491805255"><ele>227.0</ele><time>2026-04-15T14:40:32.999Z</time></trkpt><trkpt lat="46.682266679603536" lon="4.753518931034061"><ele>227.16666666666669</ele><time>2026-04-15T14:40:33.999Z</time></trkpt><trkpt lat="46.682255558505744" lon="4.753611131107756"><ele>227.33333333333334</ele><time>2026-04-15T14:40:34.999Z</time></trkpt><trkpt lat="46.682232444938904" lon="4.753799334306351"><ele>227.5</ele><time>2026-04-15T14:40:36.999Z</time></trkpt><trkpt lat="46.68221456349018" lon="4.753892994738964"><ele>227.66666666666669</ele><time>2026-04-15T14:40:37.999Z</time></trkpt><trkpt lat="46.682198953394135" lon="4.753985880644905"><ele>227.83333333333334</ele><time>2026-04-15T14:40:38.999Z</time></trkpt><trkpt lat="46.68218548610399" lon="4.7540865527544245"><ele>228.0</ele><time>2026-04-15T14:40:39.999Z</time></trkpt><trkpt lat="46.682172457309385" lon="4.754180257960307"><ele>228.0</ele><time>2026-04-15T14:40:40.999Z</time></trkpt><trkpt lat="46.68216047807068" lon="4.754279920225953"><ele>228.0</ele><time>2026-04-15T14:40:41.999Z</time></trkpt><trkpt lat="46.682144222928294" lon="4.754377055872943"><ele>228.0</ele><time>2026-04-15T14:40:42.999Z</time></trkpt><trkpt lat="46.68212650960126" lon="4.754482282342943"><ele>228.0</ele><time>2026-04-15T14:40:43.999Z</time></trkpt><trkpt lat="46.682106321880646" lon="4.754573834574463"><ele>228.0</ele><time>2026-04-15T14:40:44.999Z</time></trkpt><trkpt lat="46.682080501360524" lon="4.754757639417508"><ele>228.0</ele><time>2026-04-15T14:40:46.999Z</time></trkpt><trkpt lat="46.68205513812664" lon="4.754915849901264"><ele>227.83333333333334</ele><time>2026-04-15T14:40:48.999Z</time></trkpt><trkpt lat="46.6820483038518" lon="4.75502097139317"><ele>227.66666666666669</ele><time>2026-04-15T14:40:49.999Z</time></trkpt><trkpt lat="46.68203426066774" lon="4.755113769910124"><ele>227.5</ele><time>2026-04-15T14:40:50.999Z</time></trkpt><trkpt lat="46.682017895773704" lon="4.755209021467647"><ele>227.33333333333334</ele><time>2026-04-15T14:40:51.999Z</time></trkpt><trkpt lat="46.68199649617592" lon="4.7553066497301115"><ele>227.16666666666669</ele><time>2026-04-15T14:40:52.999Z</time></trkpt><trkpt lat="46.681963399564154" lon="4.75548110088102"><ele>227.0</ele><time>2026-04-15T14:40:54.999Z</time></trkpt><trkpt lat="46.681956367252404" lon="4.75557818490563"><ele>226.50000000000003</ele><time>2026-04-15T14:40:55.999Z</time></trkpt><trkpt lat="46.681944846355854" lon="4.755674964071337"><ele>226.0</ele><time>2026-04-15T14:40:56.999Z</time></trkpt><trkpt lat="46.68190968629336" lon="4.755848210902955"><ele>225.5</ele><time>2026-04-15T14:40:58.999Z</time></trkpt><trkpt lat="46.6818895353876" lon="4.75602840849386"><ele>225.0</ele><time>2026-04-15T14:41:00.999Z</time></trkpt><trkpt lat="46.68187869217216" lon="4.756119668008561"><ele>224.50000000000003</ele><time>2026-04-15T14:41:01.999Z</time></trkpt><trkpt lat="46.68186224523723" lon="4.756210192155143"><ele>224.0</ele><time>2026-04-15T14:41:02.999Z</time></trkpt><trkpt lat="46.681841345601285" lon="4.756386272297442"><ele>224.0</ele><time>2026-04-15T14:41:04.999Z</time></trkpt><trkpt lat="46.68182060045714" lon="4.756563816714954"><ele>223.99999999999997</ele><time>2026-04-15T14:41:06.999Z</time></trkpt><trkpt lat="46.68180247268941" lon="4.75665661674619"><ele>223.99999999999997</ele><time>2026-04-15T14:41:07.999Z</time></trkpt><trkpt lat="46.68177529366371" lon="4.756840147519236"><ele>224.0</ele><time>2026-04-15T14:41:10Z</time></trkpt><trkpt lat="46.681759986674244" lon="4.7569319038819975"><ele>224.0</ele><time>2026-04-15T14:41:11Z</time></trkpt><trkpt lat="46.68173124983151" lon="4.757099894673019"><ele>224.16666666666669</ele><time>2026-04-15T14:41:13Z</time></trkpt><trkpt lat="46.68172352957827" lon="4.757193750684125"><ele>224.33333333333334</ele><time>2026-04-15T14:41:14Z</time></trkpt><trkpt lat="46.68170849557536" lon="4.757285393713356"><ele>224.5</ele><time>2026-04-15T14:41:15Z</time></trkpt><trkpt lat="46.68168360790293" lon="4.757371381023482"><ele>224.66666666666669</ele><time>2026-04-15T14:41:16Z</time></trkpt><trkpt lat="46.68165022573945" lon="4.757548645079923"><ele>224.83333333333334</ele><time>2026-04-15T14:41:18Z</time></trkpt><trkpt lat="46.68164124243507" lon="4.757646067666984"><ele>225.0</ele><time>2026-04-15T14:41:19Z</time></trkpt><trkpt lat="46.681615391495534" lon="4.757834237792274"><ele>225.25</ele><time>2026-04-15T14:41:21Z</time></trkpt><trkpt lat="46.68159253545279" lon="4.758007816705967"><ele>225.5</ele><time>2026-04-15T14:41:23Z</time></trkpt><trkpt lat="46.681561135527225" lon="4.758184213901912"><ele>225.75</ele><time>2026-04-15T14:41:25Z</time></trkpt><trkpt lat="46.681549577431895" lon="4.758374389306595"><ele>226.0</ele><time>2026-04-15T14:41:27Z</time></trkpt><trkpt lat="46.681534207511426" lon="4.758551013233102"><ele>226.16666666666666</ele><time>2026-04-15T14:41:29Z</time></trkpt><trkpt lat="46.681505915370835" lon="4.758727508234872"><ele>226.33333333333331</ele><time>2026-04-15T14:41:31Z</time></trkpt><trkpt lat="46.68146777009698" lon="4.7588994099341555"><ele>226.5</ele><time>2026-04-15T14:41:33Z</time></trkpt><trkpt lat="46.681459448519014" lon="4.758992677675281"><ele>226.66666666666669</ele><time>2026-04-15T14:41:34Z</time></trkpt><trkpt lat="46.681447929768716" lon="4.7590859241001295"><ele>226.83333333333334</ele><time>2026-04-15T14:41:35Z</time></trkpt><trkpt lat="46.681439242154084" lon="4.759180593088132"><ele>227.0</ele><time>2026-04-15T14:41:36Z</time></trkpt><trkpt lat="46.68142156574874" lon="4.759273111990668"><ele>227.2</ele><time>2026-04-15T14:41:37Z</time></trkpt><trkpt lat="46.68140746699501" lon="4.759368195986373"><ele>227.39999999999998</ele><time>2026-04-15T14:41:38Z</time></trkpt><trkpt lat="46.68138483598918" lon="4.759541592485126"><ele>227.60000000000002</ele><time>2026-04-15T14:41:40Z</time></trkpt><trkpt lat="46.681364428414334" lon="4.7596344461771904"><ele>227.8</ele><time>2026-04-15T14:41:41Z</time></trkpt><trkpt lat="46.68133281655549" lon="4.759810419925811"><ele>228.0</ele><time>2026-04-15T14:41:43Z</time></trkpt><trkpt lat="46.68130995127117" lon="4.759981519577028"><ele>228.0</ele><time>2026-04-15T14:41:45Z</time></trkpt><trkpt lat="46.68127816114795" lon="4.760155126561981"><ele>228.0</ele><time>2026-04-15T14:41:47Z</time></trkpt><trkpt lat="46.68126665104346" lon="4.760250869773467"><ele>228.0</ele><time>2026-04-15T14:41:48Z</time></trkpt><trkpt lat="46.68124060105765" lon="4.760418133262805"><ele>228.0</ele><time>2026-04-15T14:41:50Z</time></trkpt><trkpt lat="46.681214513085145" lon="4.7605915516989175"><ele>228.0</ele><time>2026-04-15T14:41:52Z</time></trkpt><trkpt lat="46.68118957212923" lon="4.760755673556523"><ele>228.0</ele><time>2026-04-15T14:41:54Z</time></trkpt><trkpt lat="46.681179345742095" lon="4.76085788430429"><ele>228.0</ele><time>2026-04-15T14:41:55Z</time></trkpt><trkpt lat="46.68116062808085" lon="4.761030370350197"><ele>228.0</ele><time>2026-04-15T14:41:57Z</time></trkpt><trkpt lat="46.68113103749901" lon="4.761210466714352"><ele>228.0</ele><time>2026-04-15T14:41:59Z</time></trkpt><trkpt lat="46.68110957905436" lon="4.761372186990495"><ele>228.0</ele><time>2026-04-15T14:42:01Z</time></trkpt><trkpt lat="46.68107555473048" lon="4.761541976285719"><ele>228.0</ele><time>2026-04-15T14:42:03Z</time></trkpt><trkpt lat="46.681063835645546" lon="4.761720748088627"><ele>228.0</ele><time>2026-04-15T14:42:05Z</time></trkpt><trkpt lat="46.68104978372233" lon="4.761818176812666"><ele>228.0</ele><time>2026-04-15T14:42:06Z</time></trkpt><trkpt lat="46.681014275571954" lon="4.76198583323228"><ele>228.0</ele><time>2026-04-15T14:42:08Z</time></trkpt><trkpt lat="46.680987100684824" lon="4.762171480842077"><ele>228.0</ele><time>2026-04-15T14:42:10Z</time></trkpt><trkpt lat="46.68096465184828" lon="4.762338954408182"><ele>228.0</ele><time>2026-04-15T14:42:12Z</time></trkpt><trkpt lat="46.68093831162558" lon="4.762522094270994"><ele>228.0</ele><time>2026-04-15T14:42:14Z</time></trkpt><trkpt lat="46.68092770877551" lon="4.762613177960847"><ele>228.0</ele><time>2026-04-15T14:42:15Z</time></trkpt><trkpt lat="46.68090303248442" lon="4.762701702087601"><ele>228.0</ele><time>2026-04-15T14:42:16Z</time></trkpt><trkpt lat="46.68087318591548" lon="4.762878516250035"><ele>228.0</ele><time>2026-04-15T14:42:17.999Z</time></trkpt><trkpt lat="46.68085490258158" lon="4.763061743408946"><ele>228.0</ele><time>2026-04-15T14:42:19.999Z</time></trkpt><trkpt lat="46.68084003514913" lon="4.763229815213494"><ele>228.0</ele><time>2026-04-15T14:42:21.999Z</time></trkpt><trkpt lat="46.6808153973187" lon="4.763374641833899"><ele>228.0</ele><time>2026-04-15T14:42:23.999Z</time></trkpt><trkpt lat="46.68078123563611" lon="4.763545211261303"><ele>228.0</ele><time>2026-04-15T14:42:25.999Z</time></trkpt><trkpt lat="46.68076109417493" lon="4.76372813194618"><ele>228.0</ele><time>2026-04-15T14:42:27.999Z</time></trkpt><trkpt lat="46.6807268435352" lon="4.76391140760281"><ele>228.0</ele><time>2026-04-15T14:42:29.999Z</time></trkpt><trkpt lat="46.680700618240934" lon="4.764086453704211"><ele>228.0</ele><time>2026-04-15T14:42:31.999Z</time></trkpt><trkpt lat="46.680693296011455" lon="4.7641796863786805"><ele>228.0</ele><time>2026-04-15T14:42:32.999Z</time></trkpt><trkpt lat="46.68067601437063" lon="4.764270622132937"><ele>228.0</ele><time>2026-04-15T14:42:33.999Z</time></trkpt><trkpt lat="46.68066139805742" lon="4.764364103178816"><ele>228.0</ele><time>2026-04-15T14:42:34.999Z</time></trkpt><trkpt lat="46.68065102662393" lon="4.764467417481176"><ele>228.0</ele><time>2026-04-15T14:42:35.999Z</time></trkpt><trkpt lat="46.6806420544889" lon="4.764561789354992"><ele>227.99999999999997</ele><time>2026-04-15T14:42:36.999Z</time></trkpt><trkpt lat="46.68063062069592" lon="4.764657233285286"><ele>228.0</ele><time>2026-04-15T14:42:37.999Z</time></trkpt><trkpt lat="46.68060951344508" lon="4.764751609328897"><ele>228.0</ele><time>2026-04-15T14:42:38.999Z</time></trkpt><trkpt lat="46.68059630584662" lon="4.764853657338493"><ele>227.99999999999997</ele><time>2026-04-15T14:42:39.999Z</time></trkpt><trkpt lat="46.68058995236072" lon="4.764948792406008"><ele>228.0</ele><time>2026-04-15T14:42:40.999Z</time></trkpt><trkpt lat="46.68057948838165" lon="4.7650521999278075"><ele>228.0</ele><time>2026-04-15T14:42:41.999Z</time></trkpt><trkpt lat="46.68056821856512" lon="4.765151062386516"><ele>228.0</ele><time>2026-04-15T14:42:42.999Z</time></trkpt><trkpt lat="46.68055655448359" lon="4.765247336702723"><ele>227.99999999999997</ele><time>2026-04-15T14:42:43.999Z</time></trkpt><trkpt lat="46.68054163430167" lon="4.765342531681328"><ele>228.0</ele><time>2026-04-15T14:42:44.999Z</time></trkpt><trkpt lat="46.68052488470492" lon="4.765437580641314"><ele>228.0</ele><time>2026-04-15T14:42:45.999Z</time></trkpt><trkpt lat="46.680505955590085" lon="4.7655371243416855"><ele>227.99999999999997</ele><time>2026-04-15T14:42:46.999Z</time></trkpt><trkpt lat="46.680489269431604" lon="4.76563911254559"><ele>228.0</ele><time>2026-04-15T14:42:47.999Z</time></trkpt><trkpt lat="46.68048297974318" lon="4.76574144209569"><ele>228.0</ele><time>2026-04-15T14:42:48.999Z</time></trkpt><trkpt lat="46.68046943547015" lon="4.7658382261206516"><ele>228.0</ele><time>2026-04-15T14:42:49.999Z</time></trkpt><trkpt lat="46.68044342459563" lon="4.765930703198966"><ele>227.99999999999997</ele><time>2026-04-15T14:42:50.999Z</time></trkpt><trkpt lat="46.68042932607232" lon="4.7660344324804615"><ele>228.0</ele><time>2026-04-15T14:42:51.999Z</time></trkpt><trkpt lat="46.68041184804083" lon="4.766132722088015"><ele>228.0</ele><time>2026-04-15T14:42:52.999Z</time></trkpt><trkpt lat="46.680401998490176" lon="4.766232314681912"><ele>227.99999999999997</ele><time>2026-04-15T14:42:53.999Z</time></trkpt><trkpt lat="46.68038054412723" lon="4.766323490777361"><ele>228.0</ele><time>2026-04-15T14:42:54.999Z</time></trkpt><trkpt lat="46.6803719375364" lon="4.766428640049555"><ele>228.0</ele><time>2026-04-15T14:42:55.999Z</time></trkpt><trkpt lat="46.680355281642605" lon="4.766520614412983"><ele>227.60000000000002</ele><time>2026-04-15T14:42:56.999Z</time></trkpt><trkpt lat="46.68033108768842" lon="4.766617330773583"><ele>227.20000000000002</ele><time>2026-04-15T14:42:57.999Z</time></trkpt><trkpt lat="46.680310311819795" lon="4.766787885272329"><ele>226.8</ele><time>2026-04-15T14:42:59.999Z</time></trkpt><trkpt lat="46.680310752115325" lon="4.766880141635129"><ele>226.4</ele><time>2026-04-15T14:43:00.999Z</time></trkpt><trkpt lat="46.68027618516679" lon="4.767017973293251"><ele>226.0</ele><time>2026-04-15T14:43:02.999Z</time></trkpt><trkpt lat="46.680320734313405" lon="4.7671454864674345"><ele>225.66666666666666</ele><time>2026-04-15T14:43:05.999Z</time></trkpt><trkpt lat="46.680398236131076" lon="4.7671836872787035"><ele>225.33333333333331</ele><time>2026-04-15T14:43:07.999Z</time></trkpt><trkpt lat="46.68046799107071" lon="4.767246822299865"><ele>225.0</ele><time>2026-04-15T14:43:09.999Z</time></trkpt><trkpt lat="46.680538018530726" lon="4.7673160044410015"><ele>224.66666666666669</ele><time>2026-04-15T14:43:11.999Z</time></trkpt><trkpt lat="46.68062090593632" lon="4.767381339198655"><ele>224.33333333333334</ele><time>2026-04-15T14:43:13.999Z</time></trkpt><trkpt lat="46.680701592669685" lon="4.767452039639211"><ele>224.0</ele><time>2026-04-15T14:43:16Z</time></trkpt><trkpt lat="46.68077503562371" lon="4.7675422664111435"><ele>224.0</ele><time>2026-04-15T14:43:18Z</time></trkpt><trkpt lat="46.68085146569849" lon="4.767620153546331"><ele>223.99999999999997</ele><time>2026-04-15T14:43:20Z</time></trkpt><trkpt lat="46.68094681144117" lon="4.767698174780355"><ele>223.99999999999997</ele><time>2026-04-15T14:43:22Z</time></trkpt><trkpt lat="46.68104525104297" lon="4.767793277573672"><ele>224.0</ele><time>2026-04-15T14:43:24Z</time></trkpt><trkpt lat="46.68115209700226" lon="4.767890444224352"><ele>224.0</ele><time>2026-04-15T14:43:26Z</time></trkpt><trkpt lat="46.68125430091576" lon="4.767968218817537"><ele>224.16666666666669</ele><time>2026-04-15T14:43:28Z</time></trkpt><trkpt lat="46.681340967742564" lon="4.768060764175546"><ele>224.33333333333334</ele><time>2026-04-15T14:43:30Z</time></trkpt><trkpt lat="46.68141894477662" lon="4.768126456229653"><ele>224.5</ele><time>2026-04-15T14:43:32Z</time></trkpt><trkpt lat="46.681502492985594" lon="4.768188661915264"><ele>224.66666666666669</ele><time>2026-04-15T14:43:34Z</time></trkpt><trkpt lat="46.681554757886566" lon="4.768261093726133"><ele>224.83333333333334</ele><time>2026-04-15T14:43:36Z</time></trkpt><trkpt lat="46.68162422454455" lon="4.768328028670448"><ele>225.0</ele><time>2026-04-15T14:43:38Z</time></trkpt><trkpt lat="46.68168663681178" lon="4.7683954499431955"><ele>225.0</ele><time>2026-04-15T14:43:40Z</time></trkpt><trkpt lat="46.681760090426565" lon="4.768452637113423"><ele>225.0</ele><time>2026-04-15T14:43:42Z</time></trkpt><trkpt lat="46.68182628849375" lon="4.768522583974831"><ele>225.0</ele><time>2026-04-15T14:43:44Z</time></trkpt><trkpt lat="46.681891338965805" lon="4.768579234551481"><ele>225.0</ele><time>2026-04-15T14:43:46Z</time></trkpt><trkpt lat="46.68194698496835" lon="4.768634424677639"><ele>225.0</ele><time>2026-04-15T14:43:48Z</time></trkpt><trkpt lat="46.68201738174496" lon="4.768682825518493"><ele>225.0</ele><time>2026-04-15T14:43:50Z</time></trkpt><trkpt lat="46.68209021780902" lon="4.768759033338176"><ele>224.83333333333334</ele><time>2026-04-15T14:43:53Z</time></trkpt><trkpt lat="46.68214555931198" lon="4.768839375801474"><ele>224.66666666666669</ele><time>2026-04-15T14:43:55Z</time></trkpt><trkpt lat="46.68221497117822" lon="4.7689143861875"><ele>224.5</ele><time>2026-04-15T14:43:58Z</time></trkpt><trkpt lat="46.68227362185105" lon="4.768964692971441"><ele>224.33333333333334</ele><time>2026-04-15T14:44:00Z</time></trkpt><trkpt lat="46.6823397224512" lon="4.769016570913624"><ele>224.16666666666669</ele><time>2026-04-15T14:44:02Z</time></trkpt><trkpt lat="46.68240340390418" lon="4.769067778183667"><ele>224.0</ele><time>2026-04-15T14:44:04Z</time></trkpt><trkpt lat="46.68246220579059" lon="4.769135337211361"><ele>224.0</ele><time>2026-04-15T14:44:06Z</time></trkpt><trkpt lat="46.682526065396594" lon="4.7691908275778285"><ele>223.99999999999997</ele><time>2026-04-15T14:44:08Z</time></trkpt><trkpt lat="46.682598537245696" lon="4.769232943804183"><ele>223.99999999999997</ele><time>2026-04-15T14:44:10Z</time></trkpt><trkpt lat="46.68268561537397" lon="4.76930793193248"><ele>224.0</ele><time>2026-04-15T14:44:12Z</time></trkpt><trkpt lat="46.68277382776801" lon="4.769382416619551"><ele>224.0</ele><time>2026-04-15T14:44:14Z</time></trkpt><trkpt lat="46.68284752080033" lon="4.769477732903917"><ele>223.85714285714286</ele><time>2026-04-15T14:44:15.999Z</time></trkpt><trkpt lat="46.68290525506122" lon="4.7695203319198765"><ele>223.71428571428572</ele><time>2026-04-15T14:44:17.999Z</time></trkpt><trkpt lat="46.682960504932126" lon="4.769566236225124"><ele>223.57142857142856</ele><time>2026-04-15T14:44:20.999Z</time></trkpt><trkpt lat="46.68301427659787" lon="4.769638329655021"><ele>223.42857142857144</ele><time>2026-04-15T14:44:22.999Z</time></trkpt><trkpt lat="46.683071952501" lon="4.769693165643287"><ele>223.28571428571428</ele><time>2026-04-15T14:44:24.999Z</time></trkpt><trkpt lat="46.683125581192186" lon="4.769751892885486"><ele>223.14285714285714</ele><time>2026-04-15T14:44:26.999Z</time></trkpt><trkpt lat="46.68320052321905" lon="4.769814660500693"><ele>223.0</ele><time>2026-04-15T14:44:29.999Z</time></trkpt><trkpt lat="46.683275313342556" lon="4.769898933469891"><ele>222.99999999999997</ele><time>2026-04-15T14:44:32.999Z</time></trkpt><trkpt lat="46.683329723908535" lon="4.769951885397818"><ele>223.0</ele><time>2026-04-15T14:44:34.999Z</time></trkpt><trkpt lat="46.6834012349654" lon="4.7700027636300595"><ele>223.0</ele><time>2026-04-15T14:44:36.999Z</time></trkpt><trkpt lat="46.68347176958637" lon="4.770069597813118"><ele>223.0</ele><time>2026-04-15T14:44:38.999Z</time></trkpt><trkpt lat="46.68354644281291" lon="4.770130995531683"><ele>222.99999999999997</ele><time>2026-04-15T14:44:40.999Z</time></trkpt><trkpt lat="46.683605258637506" lon="4.770195110670323"><ele>223.0</ele><time>2026-04-15T14:44:42.999Z</time></trkpt><trkpt lat="46.68366563071343" lon="4.770259632425887"><ele>223.14285714285714</ele><time>2026-04-15T14:44:44.999Z</time></trkpt><trkpt lat="46.68374603536152" lon="4.770327007767149"><ele>223.28571428571428</ele><time>2026-04-15T14:44:47.999Z</time></trkpt><trkpt lat="46.68380183747388" lon="4.770374205859889"><ele>223.42857142857144</ele><time>2026-04-15T14:44:49.999Z</time></trkpt><trkpt lat="46.68386240602667" lon="4.770428036392269"><ele>223.57142857142856</ele><time>2026-04-15T14:44:51.999Z</time></trkpt><trkpt lat="46.68392922265418" lon="4.7704892852415215"><ele>223.71428571428572</ele><time>2026-04-15T14:44:53.999Z</time></trkpt><trkpt lat="46.68398540912668" lon="4.77054329609217"><ele>223.85714285714286</ele><time>2026-04-15T14:44:55.999Z</time></trkpt><trkpt lat="46.684040357099995" lon="4.770600067127893"><ele>224.0</ele><time>2026-04-15T14:44:57.999Z</time></trkpt><trkpt lat="46.684095768417485" lon="4.770678031389693"><ele>224.0</ele><time>2026-04-15T14:45:01.999Z</time></trkpt><trkpt lat="46.684144842444375" lon="4.770742563373418"><ele>224.0</ele><time>2026-04-15T14:45:15.999Z</time></trkpt><trkpt lat="46.684206586984956" lon="4.770785560611688"><ele>224.0</ele><time>2026-04-15T14:45:26Z</time></trkpt><trkpt lat="46.68427522694838" lon="4.770839752418287"><ele>224.0</ele><time>2026-04-15T14:45:29Z</time></trkpt><trkpt lat="46.684327601159474" lon="4.770896059857752"><ele>224.0</ele><time>2026-04-15T14:45:37Z</time></trkpt><trkpt lat="46.68431917903363" lon="4.771005986203644"><ele>224.0</ele><time>2026-04-15T14:45:42Z</time></trkpt><trkpt lat="46.68432217849964" lon="4.771098040856848"><ele>224.0</ele><time>2026-04-15T14:45:46Z</time></trkpt><trkpt lat="46.68434733480006" lon="4.7712055461459135"><ele>224.0</ele><time>2026-04-15T14:45:51Z</time></trkpt><trkpt lat="46.6843316083521" lon="4.771295276188779"><ele>224.0</ele><time>2026-04-15T14:45:54Z</time></trkpt><trkpt lat="46.68431957998595" lon="4.771389495713363"><ele>224.0</ele><time>2026-04-15T14:45:57Z</time></trkpt><trkpt lat="46.68430416654071" lon="4.771478619690298"><ele>224.0</ele><time>2026-04-15T14:46:01Z</time></trkpt><trkpt lat="46.684262177259264" lon="4.771574186739501"><ele>224.0</ele><time>2026-04-15T14:46:19Z</time></trkpt><trkpt lat="46.68422811995264" lon="4.7716570510078"><ele>224.0</ele><time>2026-04-15T14:46:28.999Z</time></trkpt><trkpt lat="46.68418335084661" lon="4.771733519896309"><ele>224.0</ele><time>2026-04-15T14:46:40.999Z</time></trkpt><trkpt lat="46.68419428702012" lon="4.771829887490225"><ele>224.14285714285714</ele><time>2026-04-15T14:47:23.999Z</time></trkpt><trkpt lat="46.684164536965696" lon="4.771924050181356"><ele>224.28571428571428</ele><time>2026-04-15T14:47:31Z</time></trkpt><trkpt lat="46.684125909216135" lon="4.772001650609525"><ele>224.42857142857144</ele><time>2026-04-15T14:47:38Z</time></trkpt><trkpt lat="46.684111645807896" lon="4.772094754814006"><ele>224.57142857142858</ele><time>2026-04-15T14:47:44Z</time></trkpt><trkpt lat="46.68408430605595" lon="4.7721906531505605"><ele>224.71428571428572</ele><time>2026-04-15T14:47:54Z</time></trkpt><trkpt lat="46.68402076754025" lon="4.772184214309494"><ele>224.8571428571429</ele><time>2026-04-15T14:48:02Z</time></trkpt><trkpt lat="46.68395628860328" lon="4.7722060861995"><ele>225.00000000000003</ele><time>2026-04-15T14:48:10Z</time></trkpt><trkpt lat="46.68389169171131" lon="4.772206539167273"><ele>225.00000000000003</ele><time>2026-04-15T14:48:19Z</time></trkpt><trkpt lat="46.6838272674755" lon="4.772163752985546"><ele>225.0</ele><time>2026-04-15T14:48:28Z</time></trkpt><trkpt lat="46.683752449808374" lon="4.772177875950391"><ele>225.00000000000003</ele><time>2026-04-15T14:48:40.999Z</time></trkpt><trkpt lat="46.68368592961771" lon="4.772166625331881"><ele>225.00000000000003</ele><time>2026-04-15T14:48:45.999Z</time></trkpt><trkpt lat="46.683619098014816" lon="4.77218522213293"><ele>225.0</ele><time>2026-04-15T14:48:52.999Z</time></trkpt><trkpt lat="46.683561990226494" lon="4.77224821227392"><ele>225.00000000000003</ele><time>2026-04-15T14:49:01.999Z</time></trkpt><trkpt lat="46.68354176086461" lon="4.772148619052761"><ele>225.00000000000003</ele><time>2026-04-15T14:49:07.999Z</time></trkpt><trkpt lat="46.683468895772165" lon="4.772130407699538"><ele>225.00000000000003</ele><time>2026-04-15T14:49:13.999Z</time></trkpt><trkpt lat="46.683406950605324" lon="4.77206071664458"><ele>225.0</ele><time>2026-04-15T14:49:21.999Z</time></trkpt><trkpt lat="46.68340562167881" lon="4.772163813134891"><ele>225.00000000000003</ele><time>2026-04-15T14:49:46Z</time></trkpt><trkpt lat="46.6833456460772" lon="4.772206919581909"><ele>225.00000000000003</ele><time>2026-04-15T14:49:52Z</time></trkpt><trkpt lat="46.68328662170138" lon="4.77216615324164"><ele>225.0</ele><time>2026-04-15T14:50:05Z</time></trkpt><trkpt lat="46.68324500804347" lon="4.77224996561079"><ele>225.00000000000003</ele><time>2026-04-15T14:50:19Z</time></trkpt><trkpt lat="46.683215997058696" lon="4.7723452791910494"><ele>225.00000000000003</ele><time>2026-04-15T14:50:22Z</time></trkpt><trkpt lat="46.68316309191561" lon="4.77246326127535"><ele>225.0</ele><time>2026-04-15T14:50:26Z</time></trkpt><trkpt lat="46.683168580255526" lon="4.77256754548246"><ele>225.0</ele><time>2026-04-15T14:50:29Z</time></trkpt><trkpt lat="46.683158534802665" lon="4.772661754461339"><ele>225.0</ele><time>2026-04-15T14:50:32Z</time></trkpt><trkpt lat="46.683094745670225" lon="4.772755467534078"><ele>225.0</ele><time>2026-04-15T14:50:35.999Z</time></trkpt><trkpt lat="46.683047263348115" lon="4.772857302678077"><ele>225.0</ele><time>2026-04-15T14:50:37.999Z</time></trkpt><trkpt lat="46.68301216548678" lon="4.772942033985739"><ele>225.0</ele><time>2026-04-15T14:50:51.999Z</time></trkpt><trkpt lat="46.682978644760446" lon="4.77304068691207"><ele>225.16666666666666</ele><time>2026-04-15T14:50:55.999Z</time></trkpt><trkpt lat="46.68293081648249" lon="4.773101074991667"><ele>225.33333333333331</ele><time>2026-04-15T14:50:58.999Z</time></trkpt><trkpt lat="46.68287654755177" lon="4.773174389581114"><ele>225.5</ele><time>2026-04-15T14:51:01.999Z</time></trkpt><trkpt lat="46.68282036906264" lon="4.773277490880015"><ele>225.66666666666666</ele><time>2026-04-15T14:51:04.999Z</time></trkpt><trkpt lat="46.68276979397552" lon="4.773333943481607"><ele>225.83333333333331</ele><time>2026-04-15T14:51:06.999Z</time></trkpt><trkpt lat="46.68270121494015" lon="4.773394931529402"><ele>226.0</ele><time>2026-04-15T14:51:08.999Z</time></trkpt><trkpt lat="46.682639174888294" lon="4.7734784076449825"><ele>225.8</ele><time>2026-04-15T14:51:10.999Z</time></trkpt><trkpt lat="46.6825772573635" lon="4.7735142350628825"><ele>225.60000000000002</ele><time>2026-04-15T14:51:12.999Z</time></trkpt><trkpt lat="46.68247899885077" lon="4.773558073339902"><ele>225.4</ele><time>2026-04-15T14:51:15.999Z</time></trkpt><trkpt lat="46.68238955582325" lon="4.773625241206665"><ele>225.2</ele><time>2026-04-15T14:51:18.999Z</time></trkpt><trkpt lat="46.68231737857125" lon="4.773694948204739"><ele>225.0</ele><time>2026-04-15T14:51:20.999Z</time></trkpt><trkpt lat="46.68223487529352" lon="4.773770919129639"><ele>225.0</ele><time>2026-04-15T14:51:23.999Z</time></trkpt><trkpt lat="46.682179572641395" lon="4.773849302482866"><ele>225.0</ele><time>2026-04-15T14:51:25.999Z</time></trkpt><trkpt lat="46.68212091239939" lon="4.773932136557754"><ele>225.0</ele><time>2026-04-15T14:51:27.999Z</time></trkpt><trkpt lat="46.68206907081565" lon="4.7739967574771836"><ele>225.0</ele><time>2026-04-15T14:51:29.999Z</time></trkpt><trkpt lat="46.68199880854224" lon="4.7740681071125195"><ele>225.0</ele><time>2026-04-15T14:51:31.999Z</time></trkpt><trkpt lat="46.681932367140924" lon="4.7741724711794244"><ele>225.0</ele><time>2026-04-15T14:51:33.999Z</time></trkpt><trkpt lat="46.681855961468386" lon="4.774241621687709"><ele>224.0</ele><time>2026-04-15T14:51:35.999Z</time></trkpt><trkpt lat="46.68176296233403" lon="4.774334513018681"><ele>223.0</ele><time>2026-04-15T14:51:37.999Z</time></trkpt><trkpt lat="46.68169210944064" lon="4.774425488220904"><ele>222.0</ele><time>2026-04-15T14:51:40Z</time></trkpt><trkpt lat="46.68163508509071" lon="4.774486447696846"><ele>221.0</ele><time>2026-04-15T14:51:43Z</time></trkpt><trkpt lat="46.681570146167246" lon="4.774580006562643"><ele>220.0</ele><time>2026-04-15T14:51:47Z</time></trkpt><trkpt lat="46.68153784406875" lon="4.774662262339098"><ele>219.0</ele><time>2026-04-15T14:51:50Z</time></trkpt><trkpt lat="46.681490491133616" lon="4.774738316654559"><ele>219.0</ele><time>2026-04-15T14:51:52Z</time></trkpt><trkpt lat="46.681448614559066" lon="4.774815470931693"><ele>219.0</ele><time>2026-04-15T14:51:54Z</time></trkpt><trkpt lat="46.68139844957783" lon="4.774883604684608"><ele>219.0</ele><time>2026-04-15T14:52:00Z</time></trkpt><trkpt lat="46.68134609954098" lon="4.774936323573417"><ele>219.0</ele><time>2026-04-15T14:52:15Z</time></trkpt><trkpt lat="46.681290930372164" lon="4.774981256650526"><ele>219.0</ele><time>2026-04-15T14:52:19Z</time></trkpt><trkpt lat="46.68125081656792" lon="4.775057097360502"><ele>219.0</ele><time>2026-04-15T14:52:25Z</time></trkpt><trkpt lat="46.681194839247226" lon="4.775113996433435"><ele>219.0</ele><time>2026-04-15T14:52:37Z</time></trkpt><trkpt lat="46.68114746017296" lon="4.775176043389351"><ele>219.0</ele><time>2026-04-15T14:52:44.999Z</time></trkpt><trkpt lat="46.681107258394555" lon="4.7752504947922185"><ele>219.0</ele><time>2026-04-15T14:52:53.999Z</time></trkpt><trkpt lat="46.681155164130715" lon="4.7751756116151345"><ele>219.0</ele><time>2026-04-15T14:53:11.999Z</time></trkpt><trkpt lat="46.681201146054974" lon="4.775108045000729"><ele>219.0</ele><time>2026-04-15T14:53:18.999Z</time></trkpt><trkpt lat="46.681256971594856" lon="4.775039359809161"><ele>219.0</ele><time>2026-04-15T14:53:24.999Z</time></trkpt><trkpt lat="46.68129309786586" lon="4.774953419763124"><ele>219.0</ele><time>2026-04-15T14:53:34.999Z</time></trkpt><trkpt lat="46.68134787314452" lon="4.774899215752875"><ele>219.0</ele><time>2026-04-15T14:53:41.999Z</time></trkpt><trkpt lat="46.681409907649616" lon="4.774863461930826"><ele>219.0</ele><time>2026-04-15T14:53:48Z</time></trkpt><trkpt lat="46.68144234064721" lon="4.774771318277098"><ele>219.0</ele><time>2026-04-15T14:53:57Z</time></trkpt><trkpt lat="46.681497997081564" lon="4.774694435268732"><ele>219.0</ele><time>2026-04-15T14:54:01Z</time></trkpt><trkpt lat="46.68154481209283" lon="4.774619131026435"><ele>219.0</ele><time>2026-04-15T14:54:04Z</time></trkpt><trkpt lat="46.68158011217021" lon="4.774539612419041"><ele>219.0</ele><time>2026-04-15T14:54:07Z</time></trkpt><trkpt lat="46.68163039669747" lon="4.774482900027486"><ele>219.0</ele><time>2026-04-15T14:54:10Z</time></trkpt><trkpt lat="46.68168413006528" lon="4.774416953620394"><ele>219.0</ele><time>2026-04-15T14:54:13Z</time></trkpt><trkpt lat="46.68174052224083" lon="4.774340978284346"><ele>218.83333333333334</ele><time>2026-04-15T14:54:17Z</time></trkpt><trkpt lat="46.68179302688855" lon="4.774277839947486"><ele>218.66666666666669</ele><time>2026-04-15T14:54:19Z</time></trkpt><trkpt lat="46.68186158161122" lon="4.774213112988565"><ele>218.5</ele><time>2026-04-15T14:54:21Z</time></trkpt><trkpt lat="46.681924282011686" lon="4.774167846641958"><ele>218.33333333333334</ele><time>2026-04-15T14:54:23Z</time></trkpt><trkpt lat="46.68200489311627" lon="4.774060735368508"><ele>218.16666666666669</ele><time>2026-04-15T14:54:26Z</time></trkpt><trkpt lat="46.68205721884302" lon="4.773977291945565"><ele>218.0</ele><time>2026-04-15T14:54:28Z</time></trkpt><trkpt lat="46.68209351663164" lon="4.773895107420106"><ele>218.50000000000003</ele><time>2026-04-15T14:54:30Z</time></trkpt><trkpt lat="46.68215882996816" lon="4.773792546720739"><ele>219.0</ele><time>2026-04-15T14:54:32Z</time></trkpt><trkpt lat="46.68222955853418" lon="4.773755536288989"><ele>219.5</ele><time>2026-04-15T14:54:34Z</time></trkpt><trkpt lat="46.68231614405552" lon="4.773671369153716"><ele>220.0</ele><time>2026-04-15T14:54:37Z</time></trkpt><trkpt lat="46.682394215058714" lon="4.773626523814282"><ele>220.50000000000003</ele><time>2026-04-15T14:54:39Z</time></trkpt><trkpt lat="46.682468729514156" lon="4.773589862923091"><ele>221.0</ele><time>2026-04-15T14:54:41Z</time></trkpt><trkpt lat="46.68252851470433" lon="4.773521874887284"><ele>221.00000000000003</ele><time>2026-04-15T14:54:43Z</time></trkpt><trkpt lat="46.68260209912721" lon="4.773470693392802"><ele>221.0</ele><time>2026-04-15T14:54:47Z</time></trkpt><trkpt lat="46.682665056251324" lon="4.7734249567802145"><ele>221.0</ele><time>2026-04-15T14:54:49.999Z</time></trkpt><trkpt lat="46.682720998827826" lon="4.773334032570251"><ele>221.0</ele><time>2026-04-15T14:54:52.999Z</time></trkpt><trkpt lat="46.68277727636715" lon="4.773259789433754"><ele>221.00000000000003</ele><time>2026-04-15T14:54:54.999Z</time></trkpt><trkpt lat="46.68283271615291" lon="4.773199113623998"><ele>221.0</ele><time>2026-04-15T14:54:56.999Z</time></trkpt><trkpt lat="46.68290137030366" lon="4.773129552169882"><ele>221.66666666666669</ele><time>2026-04-15T14:54:59.999Z</time></trkpt><trkpt lat="46.68296492760258" lon="4.773042027888615"><ele>222.33333333333334</ele><time>2026-04-15T14:55:03.999Z</time></trkpt><trkpt lat="46.6829957765866" lon="4.772952417321671"><ele>223.0</ele><time>2026-04-15T14:55:06.999Z</time></trkpt><trkpt lat="46.68297230185509" lon="4.772844468513023"><ele>223.66666666666669</ele><time>2026-04-15T14:55:22.999Z</time></trkpt><trkpt lat="46.6829128423849" lon="4.77278224631027"><ele>224.33333333333334</ele><time>2026-04-15T14:55:26.999Z</time></trkpt><trkpt lat="46.68285526182628" lon="4.772739163313938"><ele>225.0</ele><time>2026-04-15T14:55:28.999Z</time></trkpt><trkpt lat="46.6827903963075" lon="4.772666638838965"><ele>224.5</ele><time>2026-04-15T14:55:31.999Z</time></trkpt><trkpt lat="46.68272258447778" lon="4.772599955525461"><ele>224.0</ele><time>2026-04-15T14:55:34.999Z</time></trkpt><trkpt lat="46.68266530620441" lon="4.77255765987004"><ele>223.5</ele><time>2026-04-15T14:55:36.999Z</time></trkpt><trkpt lat="46.682593088716835" lon="4.7724994537128"><ele>223.0</ele><time>2026-04-15T14:55:38.999Z</time></trkpt><trkpt lat="46.68252419072073" lon="4.772427346091965"><ele>222.5</ele><time>2026-04-15T14:55:41.999Z</time></trkpt><trkpt lat="46.682469094493406" lon="4.772359606596415"><ele>222.0</ele><time>2026-04-15T14:55:44.999Z</time></trkpt><trkpt lat="46.682406836185386" lon="4.772315243219581"><ele>222.0</ele><time>2026-04-15T14:55:49.999Z</time></trkpt><trkpt lat="46.68235222944366" lon="4.772249236569637"><ele>222.0</ele><time>2026-04-15T14:55:52Z</time></trkpt><trkpt lat="46.682299556423935" lon="4.7721879994595495"><ele>222.0</ele><time>2026-04-15T14:55:55Z</time></trkpt><trkpt lat="46.68224030647521" lon="4.772147079772451"><ele>222.0</ele><time>2026-04-15T14:55:58Z</time></trkpt><trkpt lat="46.68217375671128" lon="4.77210450632061"><ele>222.0</ele><time>2026-04-15T14:56:01Z</time></trkpt><trkpt lat="46.682101715051715" lon="4.772039186335895"><ele>222.0</ele><time>2026-04-15T14:56:04Z</time></trkpt><trkpt lat="46.68202846035578" lon="4.771978304173019"><ele>222.0</ele><time>2026-04-15T14:56:08Z</time></trkpt><trkpt lat="46.681957385472806" lon="4.771884692932134"><ele>221.7142857142857</ele><time>2026-04-15T14:56:12Z</time></trkpt><trkpt lat="46.68189579866616" lon="4.771826467230039"><ele>221.42857142857144</ele><time>2026-04-15T14:56:15Z</time></trkpt><trkpt lat="46.68184200392688" lon="4.771775067503695"><ele>221.14285714285714</ele><time>2026-04-15T14:56:17Z</time></trkpt><trkpt lat="46.68178121013705" lon="4.771693041713593"><ele>220.85714285714283</ele><time>2026-04-15T14:56:19Z</time></trkpt><trkpt lat="46.68171963576388" lon="4.771673234774788"><ele>220.57142857142856</ele><time>2026-04-15T14:56:21Z</time></trkpt><trkpt lat="46.681649893018225" lon="4.771607879063405"><ele>220.28571428571428</ele><time>2026-04-15T14:56:24Z</time></trkpt><trkpt lat="46.681592307393025" lon="4.771548673290281"><ele>220.0</ele><time>2026-04-15T14:56:28Z</time></trkpt><trkpt lat="46.68153374724792" lon="4.771474811970328"><ele>219.99999999999997</ele><time>2026-04-15T14:56:31Z</time></trkpt><trkpt lat="46.68147256044018" lon="4.771448247128137"><ele>220.0</ele><time>2026-04-15T14:56:35Z</time></trkpt><trkpt lat="46.68141459713795" lon="4.771393122707176"><ele>220.0</ele><time>2026-04-15T14:56:40Z</time></trkpt><trkpt lat="46.6813434100593" lon="4.771333286461425"><ele>220.0</ele><time>2026-04-15T14:56:44Z</time></trkpt><trkpt lat="46.681284782290064" lon="4.771249134662922"><ele>220.0</ele><time>2026-04-15T14:56:48Z</time></trkpt><trkpt lat="46.68121869826214" lon="4.771226054510578"><ele>219.99999999999997</ele><time>2026-04-15T14:56:53Z</time></trkpt><trkpt lat="46.681174716754626" lon="4.771160292485605"><ele>220.0</ele><time>2026-04-15T14:56:59Z</time></trkpt><trkpt lat="46.68111741743267" lon="4.771105300695259"><ele>219.99999999999997</ele><time>2026-04-15T14:57:04.999Z</time></trkpt><trkpt lat="46.68106705284882" lon="4.771045985884101"><ele>220.0</ele><time>2026-04-15T14:57:14.999Z</time></trkpt><trkpt lat="46.68101466431716" lon="4.770937947617385"><ele>220.0</ele><time>2026-04-15T14:57:30.999Z</time></trkpt><trkpt lat="46.68096798805071" lon="4.771013851250552"><ele>220.0</ele><time>2026-04-15T14:57:44.999Z</time></trkpt><trkpt lat="46.680900970669526" lon="4.770991670518185"><ele>220.0</ele><time>2026-04-15T14:57:54.999Z</time></trkpt><trkpt lat="46.68087765335361" lon="4.770899525053018"><ele>219.99999999999997</ele><time>2026-04-15T14:58:05Z</time></trkpt><trkpt lat="46.68082685750712" lon="4.770833208803112"><ele>220.0</ele><time>2026-04-15T14:58:11Z</time></trkpt><trkpt lat="46.68076807690613" lon="4.7707809470782765"><ele>219.99999999999997</ele><time>2026-04-15T14:58:18Z</time></trkpt><trkpt lat="46.680711840682335" lon="4.770722658731898"><ele>220.0</ele><time>2026-04-15T14:58:25Z</time></trkpt><trkpt lat="46.680651662854984" lon="4.770678652369925"><ele>220.0</ele><time>2026-04-15T14:58:33Z</time></trkpt><trkpt lat="46.680592826916346" lon="4.770639767425077"><ele>220.0</ele><time>2026-04-15T14:58:39Z</time></trkpt><trkpt lat="46.68054263548535" lon="4.770574662339545"><ele>220.0</ele><time>2026-04-15T14:58:46Z</time></trkpt><trkpt lat="46.6806045619013" lon="4.770623739606422"><ele>219.99999999999997</ele><time>2026-04-15T14:58:58Z</time></trkpt><trkpt lat="46.680684212464485" lon="4.7706973039361005"><ele>220.0</ele><time>2026-04-15T14:59:09Z</time></trkpt><trkpt lat="46.68076068290037" lon="4.770733347716153"><ele>219.99999999999997</ele><time>2026-04-15T14:59:22.999Z</time></trkpt><trkpt lat="46.680842232615376" lon="4.770737360376391"><ele>220.0</ele><time>2026-04-15T14:59:32.999Z</time></trkpt><trkpt lat="46.68090472074303" lon="4.770722596319144"><ele>220.0</ele><time>2026-04-15T14:59:38.999Z</time></trkpt><trkpt lat="46.68099311139337" lon="4.7706862046338525"><ele>220.0</ele><time>2026-04-15T14:59:47.999Z</time></trkpt><trkpt lat="46.681056798631374" lon="4.770743276263444"><ele>220.0</ele><time>2026-04-15T14:59:56.999Z</time></trkpt><trkpt lat="46.68111832232362" lon="4.770718498490249"><ele>219.99999999999997</ele><time>2026-04-15T15:00:07Z</time></trkpt><trkpt lat="46.681147959501935" lon="4.770624232112159"><ele>220.0</ele><time>2026-04-15T15:00:22Z</time></trkpt><trkpt lat="46.68120057515762" lon="4.770561456405124"><ele>220.57142857142856</ele><time>2026-04-15T15:00:43Z</time></trkpt><trkpt lat="46.68126328929394" lon="4.770534336925264"><ele>221.14285714285714</ele><time>2026-04-15T15:00:57Z</time></trkpt><trkpt lat="46.681329520395984" lon="4.770487591508527"><ele>221.71428571428572</ele><time>2026-04-15T15:01:05Z</time></trkpt><trkpt lat="46.68127448472517" lon="4.770432965715682"><ele>222.28571428571428</ele><time>2026-04-15T15:01:11Z</time></trkpt><trkpt lat="46.68122768883077" lon="4.770366504695155"><ele>222.85714285714286</ele><time>2026-04-15T15:01:17Z</time></trkpt><trkpt lat="46.681166015287126" lon="4.770325401711345"><ele>223.42857142857142</ele><time>2026-04-15T15:01:23.999Z</time></trkpt><trkpt lat="46.681117536487434" lon="4.7702668485642326"><ele>224.0</ele><time>2026-04-15T15:01:31.999Z</time></trkpt><trkpt lat="46.68110895767017" lon="4.770133634123699"><ele>224.0</ele><time>2026-04-15T15:02:12Z</time></trkpt><trkpt lat="46.68116225612982" lon="4.770066402474111"><ele>224.0</ele><time>2026-04-15T15:02:20Z</time></trkpt><trkpt lat="46.68116942558157" lon="4.769962557663783"><ele>224.0</ele><time>2026-04-15T15:02:29Z</time></trkpt><trkpt lat="46.6811171609332" lon="4.769890232579895"><ele>224.0</ele><time>2026-04-15T15:02:40Z</time></trkpt><trkpt lat="46.681063065262805" lon="4.769828699983845"><ele>224.0</ele><time>2026-04-15T15:02:47Z</time></trkpt><trkpt lat="46.68111454588278" lon="4.7697643177904325"><ele>224.0</ele><time>2026-04-15T15:03:07Z</time></trkpt><trkpt lat="46.681173319898335" lon="4.7697200642446855"><ele>224.0</ele><time>2026-04-15T15:03:19Z</time></trkpt><trkpt lat="46.68121904680681" lon="4.769650630779217"><ele>224.00000000000003</ele><time>2026-04-15T15:03:27.999Z</time></trkpt><trkpt lat="46.68123500797466" lon="4.769560962316212"><ele>224.0</ele><time>2026-04-15T15:03:35.999Z</time></trkpt><trkpt lat="46.681255328329684" lon="4.76941612156908"><ele>224.0</ele><time>2026-04-15T15:04:19Z</time></trkpt><trkpt lat="46.681277652665" lon="4.769325560006054"><ele>224.0</ele><time>2026-04-15T15:04:35Z</time></trkpt><trkpt lat="46.68129859515085" lon="4.769226286009021"><ele>224.00000000000003</ele><time>2026-04-15T15:04:45Z</time></trkpt><trkpt lat="46.68135558500831" lon="4.7691769196430895"><ele>224.0</ele><time>2026-04-15T15:04:51Z</time></trkpt><trkpt lat="46.68143112341217" lon="4.769110402834031"><ele>223.85714285714286</ele><time>2026-04-15T15:05:35.999Z</time></trkpt><trkpt lat="46.681470594573916" lon="4.769022873013451"><ele>223.71428571428572</ele><time>2026-04-15T15:05:43.999Z</time></trkpt><trkpt lat="46.681528474242924" lon="4.768962440340596"><ele>223.57142857142856</ele><time>2026-04-15T15:05:49.999Z</time></trkpt><trkpt lat="46.68154740034969" lon="4.768872013020844"><ele>223.42857142857144</ele><time>2026-04-15T15:05:58.999Z</time></trkpt><trkpt lat="46.681508529185436" lon="4.768786015725951"><ele>223.28571428571428</ele><time>2026-04-15T15:06:06.999Z</time></trkpt><trkpt lat="46.68150820638095" lon="4.768689103381007"><ele>223.14285714285714</ele><time>2026-04-15T15:06:28Z</time></trkpt><trkpt lat="46.681577038451984" lon="4.768664413445583"><ele>223.0</ele><time>2026-04-15T15:06:36Z</time></trkpt><trkpt lat="46.68163837906413" lon="4.768641004953514"><ele>223.0</ele><time>2026-04-15T15:06:52Z</time></trkpt><trkpt lat="46.6816912146037" lon="4.7685908212814105"><ele>223.0</ele><time>2026-04-15T15:07:01Z</time></trkpt><trkpt lat="46.68169073278333" lon="4.76849887447648"><ele>225.0</ele><time>2026-04-15T15:07:09Z</time></trkpt><trkpt lat="46.68175605137721" lon="4.768439600283905"><ele>225.0</ele><time>2026-04-15T15:07:18Z</time></trkpt><trkpt lat="46.68168429227415" lon="4.768370062596069"><ele>225.0</ele><time>2026-04-15T15:07:32.999Z</time></trkpt><trkpt lat="46.68161591229403" lon="4.768331158182271"><ele>225.0</ele><time>2026-04-15T15:07:36.999Z</time></trkpt></trkseg></trk></gpx>